Observation data for Crane on 01/19/2019      Previous  Date  Next       Current Mesonet Observations  Soil Data  Daily Summary Page  Observations in Plain Language
KCR2 190600Z 35017KT 10/01 A3009 RMK A01 T00980011  RH  055%=      5-min Rain = 0
KCR2 190601Z 35016G21KT 10/01 A301 RMK A01 T00980011  RH  055%=      5-min Rain = 0
KCR2 190602Z 35017KT 10/01 A3009 RMK A01 T00980011  RH  055%=      5-min Rain = 0
KCR2 190603Z 35017KT 10/01 A301 RMK A01 T00970011  RH  055%=      5-min Rain = 0
KCR2 190604Z 35018KT 10/01 A3009 RMK A01 T00970011  RH  055%=      5-min Rain = 0
KCR2 190605Z 35016KT 10/01 A3009 RMK A01 T00970012  RH  055%=      5-min Rain = 0
KCR2 190606Z 35014KT 10/01 A301 RMK A01 T00970011  RH  055%=      5-min Rain = 0
KCR2 190607Z 34019KT 10/01 A301 RMK A01 T00970012  RH  055%=      5-min Rain = 0
KCR2 190608Z 35015G21KT 10/01 A301 RMK A01 T00960012  RH  055%=      5-min Rain = 0
KCR2 190609Z 35013KT 10/01 A301 RMK A01 T00960012  RH  056%=      5-min Rain = 0
KCR2 190610Z 35013KT 10/01 A301 RMK A01 T00950011  RH  056%=      5-min Rain = 0
KCR2 190611Z 34016G21KT 10/01 A301 RMK A01 T00950011  RH  056%=      5-min Rain = 0
KCR2 190612Z 35017KT 10/01 A301 RMK A01 T00950011  RH  056%=      5-min Rain = 0
KCR2 190613Z 35017G22KT 10/01 A301 RMK A01 T00950011  RH  056%=      5-min Rain = 0
KCR2 190614Z 35015KT 10/01 A301 RMK A01 T00950011  RH  056%=      5-min Rain = 0
KCR2 190615Z 35014G19KT 10/01 A301 RMK A01 T00950011  RH  056%=      5-min Rain = 0
KCR2 190616Z 34016KT 09/01 A301 RMK A01 T00940011  RH  056%=      5-min Rain = 0
KCR2 190617Z 35016KT 09/01 A301 RMK A01 T00940011  RH  056%=      5-min Rain = 0
KCR2 190618Z 34018G23KT 09/01 A301 RMK A01 T00930010  RH  056%=      5-min Rain = 0
KCR2 190619Z 35017KT 09/01 A301 RMK A01 T00930010  RH  056%=      5-min Rain = 0
KCR2 190620Z 35016KT 09/01 A3011 RMK A01 T00930010  RH  056%=      5-min Rain = 0
KCR2 190621Z 35013KT 09/01 A3011 RMK A01 T00930010  RH  056%=      5-min Rain = 0
KCR2 190622Z 35014G19KT 09/01 A3011 RMK A01 T00930010  RH  056%=      5-min Rain = 0
KCR2 190623Z 35017G23KT 09/01 A301 RMK A01 T00930011  RH  057%=      5-min Rain = 0
KCR2 190624Z 35017KT 09/01 A3011 RMK A01 T00920011  RH  057%=      5-min Rain = 0
KCR2 190625Z 35015G20KT 09/01 A3011 RMK A01 T00920011  RH  057%=      5-min Rain = 0
KCR2 190626Z 36017KT 09/01 A3011 RMK A01 T00920011  RH  057%=      5-min Rain = 0
KCR2 190627Z 36017KT 09/01 A3011 RMK A01 T00920011  RH  057%=      5-min Rain = 0
KCR2 190628Z 35017KT 09/01 A3011 RMK A01 T00920012  RH  057%=      5-min Rain = 0
KCR2 190629Z 35020KT 09/01 A3011 RMK A01 T00910012  RH  058%=      5-min Rain = 0
KCR2 190630Z 35018G24KT 09/01 A3011 RMK A01 T00910012  RH  058%=      5-min Rain = 0
KCR2 190631Z 00014KT 09/01 A3011 RMK A01 T00910013  RH  058%=      5-min Rain = 0
KCR2 190632Z 00014KT 09/01 A3011 RMK A01 T00900012  RH  058%=      5-min Rain = 0
KCR2 190633Z 36017KT 09/01 A3011 RMK A01 T00890012  RH  058%=      5-min Rain = 0
KCR2 190634Z 35019G24KT 09/01 A3011 RMK A01 T00890013  RH  059%=      5-min Rain = 0
KCR2 190635Z 35018G23KT 09/01 A3011 RMK A01 T00890013  RH  059%=      5-min Rain = 0
KCR2 190636Z 36017KT 09/01 A3011 RMK A01 T00890013  RH  059%=      5-min Rain = 0
KCR2 190637Z 36018KT 09/01 A3011 RMK A01 T00890014  RH  059%=      5-min Rain = 0
KCR2 190638Z 35019KT 09/01 A3011 RMK A01 T00890014  RH  059%=      5-min Rain = 0
KCR2 190639Z 00015KT 09/01 A3011 RMK A01 T00890014  RH  059%=      5-min Rain = 0
KCR2 190640Z 36017KT 09/01 A3012 RMK A01 T00880014  RH  059%=      5-min Rain = 0
KCR2 190641Z 35015KT 09/01 A3012 RMK A01 T00880014  RH  060%=      5-min Rain = 0
KCR2 190642Z 35016KT 09/01 A3012 RMK A01 T00880014  RH  060%=      5-min Rain = 0
KCR2 190643Z 36017KT 09/01 A3012 RMK A01 T00870014  RH  060%=      5-min Rain = 0
KCR2 190644Z 35018KT 09/01 A3012 RMK A01 T00870014  RH  060%=      5-min Rain = 0
KCR2 190645Z 35016KT 09/01 A3012 RMK A01 T00870014  RH  060%=      5-min Rain = 0
KCR2 190646Z 35018G23KT 09/01 A3012 RMK A01 T00870014  RH  060%=      5-min Rain = 0
KCR2 190647Z 00015KT 09/01 A3012 RMK A01 T00870014  RH  060%=      5-min Rain = 0
KCR2 190648Z 36016G21KT 09/01 A3012 RMK A01 T00860014  RH  060%=      5-min Rain = 0
KCR2 190649Z 00012KT 09/01 A3012 RMK A01 T00860014  RH  061%=      5-min Rain = 0
KCR2 190650Z 00012G17KT 09/01 A3012 RMK A01 T00850014  RH  061%=      5-min Rain = 0
KCR2 190651Z 00013KT 08/01 A3013 RMK A01 T00840014  RH  061%=      5-min Rain = 0
KCR2 190652Z 00014KT 08/01 A3013 RMK A01 T00840014  RH  062%=      5-min Rain = 0
KCR2 190653Z 00015KT 08/02 A3013 RMK A01 T00840015  RH  062%=      5-min Rain = 0
KCR2 190654Z 00016KT 08/02 A3013 RMK A01 T00840015  RH  062%=      5-min Rain = 0
KCR2 190655Z 00014G20KT 08/02 A3013 RMK A01 T00840015  RH  062%=      5-min Rain = 0
KCR2 190656Z 00015KT 08/02 A3013 RMK A01 T00840015  RH  062%=      5-min Rain = 0
KCR2 190657Z 00013KT 08/02 A3013 RMK A01 T00840015  RH  062%=      5-min Rain = 0
KCR2 190658Z 01014G19KT 08/02 A3013 RMK A01 T00830015  RH  062%=      5-min Rain = 0
KCR2 190659Z 01014KT 08/02 A3013 RMK A01 T00820015  RH  063%=      5-min Rain = 0
KCR2 190700Z 01013G18KT 08/02 A3013 RMK A01 T00820015  RH  063%=      5-min Rain = 0
KCR2 190701Z 01016G21KT 08/01 A3013 RMK A01 T00820014  RH  063%=      5-min Rain = 0
KCR2 190702Z 00015G21KT 08/01 A3014 RMK A01 T00820014  RH  062%=      5-min Rain = 0
KCR2 190703Z 01021KT 08/01 A3014 RMK A01 T00810013  RH  062%=      5-min Rain = 0
KCR2 190704Z 00017KT 08/01 A3014 RMK A01 T00810013  RH  062%=      5-min Rain = 0
KCR2 190705Z 00016KT 08/01 A3014 RMK A01 T00810012  RH  062%=      5-min Rain = 0
KCR2 190706Z 00019G24KT 08/01 A3014 RMK A01 T00800011  RH  062%=      5-min Rain = 0
KCR2 190707Z 01019G24KT 08/01 A3014 RMK A01 T00790010  RH  062%=      5-min Rain = 0
KCR2 190708Z 01020G27KT 08/01 A3014 RMK A01 T00790010  RH  062%=      5-min Rain = 0
KCR2 190709Z 01017G23KT 08/01 A3014 RMK A01 T00780008  RH  061%=      5-min Rain = 0
KCR2 190710Z 00017G22KT 08/01 A3014 RMK A01 T00780008  RH  061%=      5-min Rain = 0
KCR2 190711Z 01019KT 08/01 A3014 RMK A01 T00770006  RH  061%=      5-min Rain = 0
KCR2 190712Z 01016KT 08/01 A3014 RMK A01 T00770006  RH  061%=      5-min Rain = 0
KCR2 190713Z 00012KT 08/01 A3014 RMK A01 T00760006  RH  061%=      5-min Rain = 0
KCR2 190714Z 00012KT 08/01 A3014 RMK A01 T00760005  RH  061%=      5-min Rain = 0
KCR2 190715Z 00010KT 08/01 A3014 RMK A01 T00750005  RH  061%=      5-min Rain = 0
KCR2 190716Z 00012KT 07/01 A3014 RMK A01 T00730005  RH  062%=      5-min Rain = 0
KCR2 190717Z 00013KT 07/01 A3014 RMK A01 T00730005  RH  062%=      5-min Rain = 0
KCR2 190718Z 00014KT 07/00 A3014 RMK A01 T00730004  RH  062%=      5-min Rain = 0
KCR2 190719Z 36014G19KT 07/00 A3015 RMK A01 T00730003  RH  061%=      5-min Rain = 0
KCR2 190720Z 36014G19KT 07/00 A3014 RMK A01 T00730001  RH  060%=      5-min Rain = 0
KCR2 190721Z 00012KT 07/00 A3015 RMK A01 T00730001  RH  060%=      5-min Rain = 0
KCR2 190722Z 01013KT 07/00 A3015 RMK A01 T00730000  RH  060%=      5-min Rain = 0
KCR2 190723Z 00014KT 07/00 A3015 RMK A01 T007200-0  RH  060%=      5-min Rain = 0
KCR2 190724Z 00013KT 07/M00 A3015 RMK A01 T00721001  RH  060%=      5-min Rain = 0
KCR2 190725Z 00011KT 07/M00 A3015 RMK A01 T00731001  RH  060%=      5-min Rain = 0
KCR2 190726Z 00011KT 07/M00 A3015 RMK A01 T00711002  RH  060%=      5-min Rain = 0
KCR2 190727Z 00011KT 07/M00 A3015 RMK A01 T00711002  RH  060%=      5-min Rain = 0
KCR2 190728Z 36010KT 07/M00 A3015 RMK A01 T00711002  RH  060%=      5-min Rain = 0
KCR2 190729Z 36012KT 07/M00 A3015 RMK A01 T00701002  RH  060%=      5-min Rain = 0
KCR2 190730Z 36014KT 07/M00 A3015 RMK A01 T00711003  RH  060%=      5-min Rain = 0
KCR2 190731Z 00013KT 07/M00 A3015 RMK A01 T00711003  RH  059%=      5-min Rain = 0
KCR2 190732Z 36014KT 07/M00 A3015 RMK A01 T00711003  RH  059%=      5-min Rain = 0
KCR2 190733Z 00011KT 07/M00 A3015 RMK A01 T00711003  RH  059%=      5-min Rain = 0
KCR2 190734Z 01013KT 07/M00 A3015 RMK A01 T00701004  RH  059%=      5-min Rain = 0
KCR2 190735Z 00014KT 07/M00 A3015 RMK A01 T00701004  RH  059%=      5-min Rain = 0
KCR2 190736Z 00015KT 07/M00 A3015 RMK A01 T00701004  RH  059%=      5-min Rain = 0
KCR2 190737Z 01015KT 07/M01 A3015 RMK A01 T00701005  RH  059%=      5-min Rain = 0
KCR2 190738Z 01012KT 07/M01 A3015 RMK A01 T00701005  RH  059%=      5-min Rain = 0
KCR2 190739Z 01013G23KT 07/M01 A3016 RMK A01 T00691006  RH  059%=      5-min Rain = 0
KCR2 190740Z 00017G22KT 07/M01 A3016 RMK A01 T00691006  RH  059%=      5-min Rain = 0
KCR2 190741Z 00014KT 07/M01 A3016 RMK A01 T00691007  RH  058%=      5-min Rain = 0
KCR2 190742Z 36013KT 07/M01 A3016 RMK A01 T00691007  RH  058%=      5-min Rain = 0
KCR2 190743Z 00016G21KT 07/M01 A3016 RMK A01 T00681007  RH  058%=      5-min Rain = 0
KCR2 190744Z 01015KT 07/M01 A3016 RMK A01 T00681008  RH  058%=      5-min Rain = 0
KCR2 190745Z 00017G22KT 07/M01 A3016 RMK A01 T00681008  RH  058%=      5-min Rain = 0
KCR2 190746Z 00017KT 07/M01 A3016 RMK A01 T00681008  RH  058%=      5-min Rain = 0
KCR2 190747Z 01016KT 07/M01 A3016 RMK A01 T00681009  RH  058%=      5-min Rain = 0
KCR2 190748Z 01017KT 07/M01 A3016 RMK A01 T00681009  RH  058%=      5-min Rain = 0
KCR2 190749Z 01017KT 07/M01 A3016 RMK A01 T00681009  RH  058%=      5-min Rain = 0
KCR2 190750Z 00014G19KT 07/M01 A3016 RMK A01 T00671009  RH  058%=      5-min Rain = 0
KCR2 190751Z 00016G21KT 07/M01 A3016 RMK A01 T00671009  RH  058%=      5-min Rain = 0
KCR2 190752Z 01017KT 07/M01 A3016 RMK A01 T00671009  RH  058%=      5-min Rain = 0
KCR2 190753Z 00014KT 07/M01 A3016 RMK A01 T00671009  RH  058%=      5-min Rain = 0
KCR2 190754Z 00015KT 07/M01 A3016 RMK A01 T00661009  RH  058%=      5-min Rain = 0
KCR2 190755Z 00014G19KT 07/M01 A3016 RMK A01 T00661010  RH  058%=      5-min Rain = 0
KCR2 190756Z 00012KT 07/M01 A3017 RMK A01 T00661009  RH  059%=      5-min Rain = 0
KCR2 190757Z 36015KT 07/M01 A3017 RMK A01 T00651010  RH  059%=      5-min Rain = 0
KCR2 190758Z 35015KT 07/M01 A3017 RMK A01 T00651010  RH  059%=      5-min Rain = 0
KCR2 190759Z 36013KT 07/M01 A3017 RMK A01 T00651010  RH  059%=      5-min Rain = 0
KCR2 190800Z 36012KT 07/M01 A3017 RMK A01 T00651009  RH  059%=      5-min Rain = 0
KCR2 190801Z 00012KT 06/M01 A3017 RMK A01 T00641010  RH  059%=      5-min Rain = 0
KCR2 190802Z 36013G19KT 06/M01 A3017 RMK A01 T00641009  RH  060%=      5-min Rain = 0
KCR2 190803Z 36014KT 06/M01 A3017 RMK A01 T00641009  RH  060%=      5-min Rain = 0
KCR2 190804Z 00013KT 06/M01 A3017 RMK A01 T00641009  RH  060%=      5-min Rain = 0
KCR2 190805Z 36011KT 06/M01 A3017 RMK A01 T00631009  RH  060%=      5-min Rain = 0
KCR2 190806Z 36013KT 06/M01 A3017 RMK A01 T00621009  RH  060%=      5-min Rain = 0
KCR2 190807Z 00012KT 06/M01 A3017 RMK A01 T00621009  RH  060%=      5-min Rain = 0
KCR2 190808Z 00011KT 06/M01 A3018 RMK A01 T00621009  RH  060%=      5-min Rain = 0
KCR2 190809Z 36013KT 06/M01 A3018 RMK A01 T00621009  RH  060%=      5-min Rain = 0
KCR2 190810Z 00014KT 06/M01 A3018 RMK A01 T00611009  RH  061%=      5-min Rain = 0
KCR2 190811Z 36012KT 06/M01 A3018 RMK A01 T00621009  RH  060%=      5-min Rain = 0
KCR2 190812Z 00012KT 06/M01 A3018 RMK A01 T00621009  RH  061%=      5-min Rain = 0
KCR2 190813Z 36012KT 06/M01 A3018 RMK A01 T00611009  RH  061%=      5-min Rain = 0
KCR2 190814Z 00012KT 06/M01 A3018 RMK A01 T00611009  RH  061%=      5-min Rain = 0
KCR2 190815Z 36010KT 06/M01 A3018 RMK A01 T00611009  RH  061%=      5-min Rain = 0
KCR2 190816Z 36010KT 06/M01 A3018 RMK A01 T00601009  RH  061%=      5-min Rain = 0
KCR2 190817Z 36010KT 06/M01 A3018 RMK A01 T00601009  RH  061%=      5-min Rain = 0
KCR2 190818Z 36010KT 06/M01 A3018 RMK A01 T00591009  RH  062%=      5-min Rain = 0
KCR2 190819Z 36012KT 06/M01 A3018 RMK A01 T00591009  RH  062%=      5-min Rain = 0
KCR2 190820Z 35010KT 06/M01 A3018 RMK A01 T00591009  RH  062%=      5-min Rain = 0
KCR2 190821Z 35010KT 06/M01 A3018 RMK A01 T00591009  RH  062%=      5-min Rain = 0
KCR2 190822Z 35011KT 06/M01 A3018 RMK A01 T00581009  RH  062%=      5-min Rain = 0
KCR2 190823Z 35011KT 06/M01 A3018 RMK A01 T00581009  RH  062%=      5-min Rain = 0
KCR2 190824Z 35010KT 06/M01 A3018 RMK A01 T00581009  RH  062%=      5-min Rain = 0
KCR2 190825Z 36011KT 06/M01 A3018 RMK A01 T00581009  RH  062%=      5-min Rain = 0
KCR2 190826Z 35011KT 06/M01 A3019 RMK A01 T00581009  RH  062%=      5-min Rain = 0
KCR2 190827Z 35011KT 06/M01 A3019 RMK A01 T00571009  RH  062%=      5-min Rain = 0
KCR2 190828Z 35011KT 06/M01 A3019 RMK A01 T00571009  RH  062%=      5-min Rain = 0
KCR2 190829Z 35011KT 06/M01 A3019 RMK A01 T00571009  RH  062%=      5-min Rain = 0
KCR2 190830Z 36011KT 06/M01 A3019 RMK A01 T00571009  RH  062%=      5-min Rain = 0
KCR2 190831Z 36012KT 06/M01 A3019 RMK A01 T00571009  RH  063%=      5-min Rain = 0
KCR2 190832Z 35012G17KT 06/M01 A3019 RMK A01 T00571009  RH  063%=      5-min Rain = 0
KCR2 190833Z 35011KT 06/M01 A3019 RMK A01 T00571009  RH  063%=      5-min Rain = 0
KCR2 190834Z 35011KT 06/M01 A3019 RMK A01 T00571009  RH  063%=      5-min Rain = 0
KCR2 190835Z 35010KT 06/M01 A3019 RMK A01 T00571009  RH  063%=      5-min Rain = 0
KCR2 190836Z 35011KT 06/M01 A3019 RMK A01 T00571008  RH  063%=      5-min Rain = 0
KCR2 190837Z 35011KT 06/M01 A3019 RMK A01 T00571008  RH  063%=      5-min Rain = 0
KCR2 190838Z 36011KT 06/M01 A3019 RMK A01 T00571008  RH  063%=      5-min Rain = 0
KCR2 190839Z 35012KT 06/M01 A3019 RMK A01 T00571008  RH  063%=      5-min Rain = 0
KCR2 190840Z 34012KT 06/M01 A3019 RMK A01 T00571008  RH  063%=      5-min Rain = 0
KCR2 190841Z 35011KT 06/M01 A3019 RMK A01 T00571008  RH  063%=      5-min Rain = 0
KCR2 190842Z 34011KT 06/M01 A3019 RMK A01 T00571007  RH  063%=      5-min Rain = 0
KCR2 190843Z 35010KT 06/M01 A3019 RMK A01 T00571007  RH  063%=      5-min Rain = 0
KCR2 190844Z 35012KT 06/M01 A3019 RMK A01 T00571007  RH  063%=      5-min Rain = 0
KCR2 190845Z 35012KT 06/M01 A3019 RMK A01 T00571007  RH  063%=      5-min Rain = 0
KCR2 190846Z 34011KT 06/M01 A3019 RMK A01 T00571007  RH  063%=      5-min Rain = 0
KCR2 190847Z 34011KT 06/M01 A3019 RMK A01 T00571007  RH  064%=      5-min Rain = 0
KCR2 190848Z 34010KT 06/M01 A3019 RMK A01 T00561007  RH  064%=      5-min Rain = 0
KCR2 190849Z 34010G16KT 06/M01 A302 RMK A01 T00561007  RH  064%=      5-min Rain = 0
KCR2 190850Z 34011KT 06/M01 A302 RMK A01 T00561006  RH  064%=      5-min Rain = 0
KCR2 190851Z 34012KT 06/M01 A3019 RMK A01 T00561006  RH  065%=      5-min Rain = 0
KCR2 190852Z 34011KT 06/M01 A3019 RMK A01 T00561005  RH  064%=      5-min Rain = 0
KCR2 190853Z 34011KT 06/M01 A302 RMK A01 T00571005  RH  065%=      5-min Rain = 0
KCR2 190854Z 34012KT 06/M01 A302 RMK A01 T00561005  RH  065%=      5-min Rain = 0
KCR2 190855Z 34010KT 06/M00 A302 RMK A01 T00571004  RH  065%=      5-min Rain = 0
KCR2 190856Z 34012KT 06/M01 A302 RMK A01 T00561005  RH  065%=      5-min Rain = 0
KCR2 190857Z 34015KT 06/M00 A302 RMK A01 T00561004  RH  065%=      5-min Rain = 0
KCR2 190858Z 35016KT 06/M00 A302 RMK A01 T00571004  RH  065%=      5-min Rain = 0
KCR2 190859Z 35014KT 06/M00 A302 RMK A01 T00581003  RH  065%=      5-min Rain = 0
KCR2 190900Z 34016KT 06/M00 A302 RMK A01 T00591003  RH  064%=      5-min Rain = 0
KCR2 190901Z 34018G23KT 06/M00 A302 RMK A01 T00591003  RH  064%=      5-min Rain = 0
KCR2 190902Z 34014G19KT 06/M00 A302 RMK A01 T00591003  RH  064%=      5-min Rain = 0
KCR2 190903Z 34012G18KT 06/M00 A302 RMK A01 T00591004  RH  064%=      5-min Rain = 0
KCR2 190904Z 34016KT 06/M00 A302 RMK A01 T00591003  RH  064%=      5-min Rain = 0
KCR2 190905Z 35020KT 06/M00 A302 RMK A01 T00591003  RH  064%=      5-min Rain = 0
KCR2 190906Z 35020KT 06/M00 A302 RMK A01 T00601003  RH  064%=      5-min Rain = 0
KCR2 190907Z 35017KT 06/M00 A302 RMK A01 T00601004  RH  064%=      5-min Rain = 0
KCR2 190908Z 34017KT 06/M00 A302 RMK A01 T00601003  RH  064%=      5-min Rain = 0
KCR2 190909Z 35014G19KT 06/M00 A302 RMK A01 T00601003  RH  064%=      5-min Rain = 0
KCR2 190910Z 35021KT 06/M00 A302 RMK A01 T00601003  RH  064%=      5-min Rain = 0
KCR2 190911Z 34019KT 06/M00 A302 RMK A01 T00601004  RH  064%=      5-min Rain = 0
KCR2 190912Z 34021KT 06/M00 A302 RMK A01 T00601004  RH  063%=      5-min Rain = 0
KCR2 190913Z 35018KT 06/M00 A302 RMK A01 T00611004  RH  063%=      5-min Rain = 0
KCR2 190914Z 34017KT 06/M01 A302 RMK A01 T00611005  RH  063%=      5-min Rain = 0
KCR2 190915Z 35016G21KT 06/M01 A302 RMK A01 T00601005  RH  063%=      5-min Rain = 0
KCR2 190916Z 34020KT 06/M01 A3021 RMK A01 T00601006  RH  062%=      5-min Rain = 0
KCR2 190917Z 36023G28KT 06/M01 A3021 RMK A01 T00601008  RH  062%=      5-min Rain = 0
KCR2 190918Z 35022KT 06/M01 A302 RMK A01 T00601009  RH  061%=      5-min Rain = 0
KCR2 190919Z 35022G29KT 06/M01 A3021 RMK A01 T00611009  RH  061%=      5-min Rain = 0
KCR2 190920Z 36024KT 06/M01 A3021 RMK A01 T00611010  RH  060%=      5-min Rain = 0
KCR2 190921Z 35022G27KT 06/M01 A3021 RMK A01 T00601012  RH  060%=      5-min Rain = 0
KCR2 190922Z 35018G23KT 06/M01 A3021 RMK A01 T00611012  RH  060%=      5-min Rain = 0
KCR2 190923Z 35020G25KT 06/M01 A3021 RMK A01 T00601012  RH  060%=      5-min Rain = 0
KCR2 190924Z 35023KT 06/M01 A3021 RMK A01 T00601014  RH  059%=      5-min Rain = 0
KCR2 190925Z 35022KT 06/M02 A3021 RMK A01 T00601016  RH  058%=      5-min Rain = 0
KCR2 190926Z 36017KT 06/M02 A3021 RMK A01 T00601016  RH  058%=      5-min Rain = 0
KCR2 190927Z 35017G24KT 06/M02 A3021 RMK A01 T00601016  RH  058%=      5-min Rain = 0
KCR2 190928Z 35023KT 06/M02 A3021 RMK A01 T00591016  RH  059%=      5-min Rain = 0
KCR2 190929Z 35018G23KT 06/M02 A3021 RMK A01 T00591016  RH  059%=      5-min Rain = 0
KCR2 190930Z 35022G28KT 06/M02 A3021 RMK A01 T00581017  RH  058%=      5-min Rain = 0
KCR2 190931Z 35020KT 06/M02 A3021 RMK A01 T00581018  RH  058%=      5-min Rain = 0
KCR2 190932Z 35019G24KT 06/M02 A3021 RMK A01 T00581019  RH  058%=      5-min Rain = 0
KCR2 190933Z 36018G23KT 06/M02 A3021 RMK A01 T00581019  RH  058%=      5-min Rain = 0
KCR2 190934Z 35019G25KT 06/M02 A3021 RMK A01 T00571020  RH  058%=      5-min Rain = 0
KCR2 190935Z 35020KT 06/M02 A3021 RMK A01 T00571020  RH  058%=      5-min Rain = 0
KCR2 190936Z 35018KT 06/M02 A3021 RMK A01 T00571020  RH  058%=      5-min Rain = 0
KCR2 190937Z 00017G23KT 06/M02 A3021 RMK A01 T00571020  RH  058%=      5-min Rain = 0
KCR2 190938Z 36015G21KT 06/M02 A3021 RMK A01 T00571020  RH  058%=      5-min Rain = 0
KCR2 190939Z 36018G23KT 06/M02 A3021 RMK A01 T00561020  RH  058%=      5-min Rain = 0
KCR2 190940Z 36019G24KT 06/M02 A3021 RMK A01 T00561020  RH  058%=      5-min Rain = 0
KCR2 190941Z 36020KT 06/M02 A3021 RMK A01 T00561020  RH  058%=      5-min Rain = 0
KCR2 190942Z 36017KT 06/M02 A3021 RMK A01 T00561020  RH  058%=      5-min Rain = 0
KCR2 190943Z 35017G22KT 06/M02 A3021 RMK A01 T00561020  RH  058%=      5-min Rain = 0
KCR2 190944Z 00015KT 06/M02 A3021 RMK A01 T00551020  RH  059%=      5-min Rain = 0
KCR2 190945Z 36016KT 06/M02 A3021 RMK A01 T00551020  RH  059%=      5-min Rain = 0
KCR2 190946Z 36018KT 05/M02 A3021 RMK A01 T00541020  RH  059%=      5-min Rain = 0
KCR2 190947Z 35014KT 05/M02 A3021 RMK A01 T00541019  RH  059%=      5-min Rain = 0
KCR2 190948Z 36014KT 05/M02 A3022 RMK A01 T00541020  RH  059%=      5-min Rain = 0
KCR2 190949Z 35012KT 05/M02 A3021 RMK A01 T00531019  RH  059%=      5-min Rain = 0
KCR2 190950Z 35013KT 05/M02 A3021 RMK A01 T00531019  RH  060%=      5-min Rain = 0
KCR2 190951Z 35013G18KT 05/M02 A3021 RMK A01 T00531019  RH  060%=      5-min Rain = 0
KCR2 190952Z 35015KT 05/M02 A3021 RMK A01 T00521019  RH  060%=      5-min Rain = 0
KCR2 190953Z 36016G21KT 05/M02 A3022 RMK A01 T00521019  RH  060%=      5-min Rain = 0
KCR2 190954Z 36012KT 05/M02 A3022 RMK A01 T00521019  RH  060%=      5-min Rain = 0
KCR2 190955Z 36014G21KT 05/M02 A3022 RMK A01 T00521019  RH  060%=      5-min Rain = 0
KCR2 190956Z 36018G23KT 05/M02 A3022 RMK A01 T00521019  RH  060%=      5-min Rain = 0
KCR2 190957Z 36015KT 05/M02 A3022 RMK A01 T00521019  RH  060%=      5-min Rain = 0
KCR2 190958Z 36013KT 05/M02 A3022 RMK A01 T00531019  RH  060%=      5-min Rain = 0
KCR2 190959Z 35014KT 05/M02 A3022 RMK A01 T00531019  RH  060%=      5-min Rain = 0
KCR2 191000Z 00014G19KT 05/M02 A3022 RMK A01 T00521019  RH  060%=      5-min Rain = 0
KCR2 191001Z 36014KT 05/M02 A3022 RMK A01 T00521019  RH  060%=      5-min Rain = 0
KCR2 191002Z 36014KT 05/M02 A3022 RMK A01 T00521019  RH  060%=      5-min Rain = 0
KCR2 191003Z 36014G19KT 05/M02 A3022 RMK A01 T00521019  RH  060%=      5-min Rain = 0
KCR2 191004Z 36014KT 05/M02 A3022 RMK A01 T00521019  RH  060%=      5-min Rain = 0
KCR2 191005Z 00013KT 05/M02 A3022 RMK A01 T00521019  RH  060%=      5-min Rain = 0
KCR2 191006Z 35012KT 05/M02 A3022 RMK A01 T00521019  RH  060%=      5-min Rain = 0
KCR2 191007Z 35016KT 05/M02 A3022 RMK A01 T00511019  RH  061%=      5-min Rain = 0
KCR2 191008Z 35015G20KT 05/M02 A3022 RMK A01 T00521018  RH  061%=      5-min Rain = 0
KCR2 191009Z 35011KT 05/M02 A3022 RMK A01 T00511019  RH  061%=      5-min Rain = 0
KCR2 191010Z 35010KT 05/M02 A3022 RMK A01 T00511019  RH  061%=      5-min Rain = 0
KCR2 191011Z 35012KT 05/M02 A3022 RMK A01 T00491019  RH  061%=      5-min Rain = 0
KCR2 191012Z 35011G16KT 05/M02 A3022 RMK A01 T00491019  RH  062%=      5-min Rain = 0
KCR2 191013Z 35012KT 05/M02 A3022 RMK A01 T00491018  RH  062%=      5-min Rain = 0
KCR2 191014Z 35011KT 05/M02 A3022 RMK A01 T00491018  RH  062%=      5-min Rain = 0
KCR2 191015Z 35010KT 05/M02 A3022 RMK A01 T00491018  RH  062%=      5-min Rain = 0
KCR2 191016Z 35011G16KT 05/M02 A3022 RMK A01 T00481018  RH  062%=      5-min Rain = 0
KCR2 191017Z 35011KT 05/M02 A3022 RMK A01 T00481018  RH  062%=      5-min Rain = 0
KCR2 191018Z 34012KT 05/M02 A3022 RMK A01 T00481018  RH  062%=      5-min Rain = 0
KCR2 191019Z 35011KT 05/M02 A3022 RMK A01 T00481018  RH  063%=      5-min Rain = 0
KCR2 191020Z 34009KT 05/M02 A3022 RMK A01 T00471018  RH  063%=      5-min Rain = 0
KCR2 191021Z 34008KT 05/M02 A3022 RMK A01 T00471017  RH  063%=      5-min Rain = 0
KCR2 191022Z 34013G22KT 05/M02 A3022 RMK A01 T00461017  RH  064%=      5-min Rain = 0
KCR2 191023Z 35017KT 05/M02 A3022 RMK A01 T00461017  RH  064%=      5-min Rain = 0
KCR2 191024Z 34014G19KT 05/M02 A3022 RMK A01 T00481016  RH  063%=      5-min Rain = 0
KCR2 191025Z 35014G19KT 05/M02 A3022 RMK A01 T00491016  RH  063%=      5-min Rain = 0
KCR2 191026Z 34012G18KT 05/M02 A3022 RMK A01 T00491016  RH  063%=      5-min Rain = 0
KCR2 191027Z 35012KT 05/M02 A3022 RMK A01 T00491016  RH  063%=      5-min Rain = 0
KCR2 191028Z 35018KT 05/M02 A3022 RMK A01 T00481017  RH  063%=      5-min Rain = 0
KCR2 191029Z 34017KT 05/M02 A3023 RMK A01 T00491019  RH  062%=      5-min Rain = 0
KCR2 191030Z 35018G24KT 05/M02 A3023 RMK A01 T00491020  RH  061%=      5-min Rain = 0
KCR2 191031Z 35017G22KT 05/M02 A3023 RMK A01 T00501021  RH  060%=      5-min Rain = 0
KCR2 191032Z 35020KT 05/M02 A3023 RMK A01 T00501022  RH  059%=      5-min Rain = 0
KCR2 191033Z 35018KT 05/M02 A3023 RMK A01 T00511023  RH  059%=      5-min Rain = 0
KCR2 191034Z 35019G26KT 05/M02 A3023 RMK A01 T00511023  RH  058%=      5-min Rain = 0
KCR2 191035Z 35019G24KT 05/M03 A3023 RMK A01 T00511025  RH  058%=      5-min Rain = 0
KCR2 191036Z 36020G25KT 05/M03 A3023 RMK A01 T00521025  RH  058%=      5-min Rain = 0
KCR2 191037Z 35020G25KT 05/M03 A3023 RMK A01 T00521026  RH  057%=      5-min Rain = 0
KCR2 191038Z 35017KT 05/M03 A3023 RMK A01 T00521026  RH  057%=      5-min Rain = 0
KCR2 191039Z 35015KT 05/M03 A3023 RMK A01 T00521026  RH  057%=      5-min Rain = 0
KCR2 191040Z 35017KT 05/M03 A3023 RMK A01 T00511026  RH  057%=      5-min Rain = 0
KCR2 191041Z 34017G23KT 05/M03 A3023 RMK A01 T00501026  RH  058%=      5-min Rain = 0
KCR2 191042Z 35017G22KT 05/M03 A3023 RMK A01 T00501026  RH  058%=      5-min Rain = 0
KCR2 191043Z 35016G21KT 05/M03 A3023 RMK A01 T00501026  RH  058%=      5-min Rain = 0
KCR2 191044Z 35017KT 05/M03 A3023 RMK A01 T00501026  RH  058%=      5-min Rain = 0
KCR2 191045Z 35016KT 05/M03 A3023 RMK A01 T00501026  RH  058%=      5-min Rain = 0
KCR2 191046Z 35014KT 05/M03 A3023 RMK A01 T00501025  RH  058%=      5-min Rain = 0
KCR2 191047Z 35012G19KT 05/M03 A3023 RMK A01 T00491025  RH  059%=      5-min Rain = 0
KCR2 191048Z 35014KT 05/M03 A3023 RMK A01 T00481025  RH  059%=      5-min Rain = 0
KCR2 191049Z 35013KT 05/M03 A3023 RMK A01 T00481025  RH  059%=      5-min Rain = 0
KCR2 191050Z 35012KT 05/M02 A3023 RMK A01 T00471024  RH  060%=      5-min Rain = 0
KCR2 191051Z 35015KT 05/M02 A3023 RMK A01 T00471024  RH  060%=      5-min Rain = 0
KCR2 191052Z 35014G20KT 05/M02 A3023 RMK A01 T00471023  RH  060%=      5-min Rain = 0
KCR2 191053Z 35012KT 05/M02 A3023 RMK A01 T00471023  RH  060%=      5-min Rain = 0
KCR2 191054Z 35014KT 05/M02 A3023 RMK A01 T00461023  RH  061%=      5-min Rain = 0
KCR2 191055Z 35015KT 05/M02 A3023 RMK A01 T00461023  RH  061%=      5-min Rain = 0
KCR2 191056Z 35015KT 05/M02 A3023 RMK A01 T00471023  RH  060%=      5-min Rain = 0
KCR2 191057Z 35013G18KT 05/M02 A3023 RMK A01 T00471023  RH  060%=      5-min Rain = 0
KCR2 191058Z 35014KT 05/M02 A3023 RMK A01 T00461023  RH  061%=      5-min Rain = 0
KCR2 191059Z 36018KT 05/M02 A3023 RMK A01 T00461024  RH  060%=      5-min Rain = 0
KCR2 191100Z 00015KT 05/M02 A3023 RMK A01 T00471024  RH  060%=      5-min Rain = 0
KCR2 191101Z 35017G23KT 05/M02 A3023 RMK A01 T00471024  RH  060%=      5-min Rain = 0
KCR2 191102Z 36014KT 05/M03 A3023 RMK A01 T00471025  RH  060%=      5-min Rain = 0
KCR2 191103Z 36013G18KT 05/M03 A3023 RMK A01 T00471025  RH  060%=      5-min Rain = 0
KCR2 191104Z 36015KT 05/M03 A3023 RMK A01 T00471025  RH  060%=      5-min Rain = 0
KCR2 191105Z 35013KT 05/M03 A3023 RMK A01 T00471025  RH  060%=      5-min Rain = 0
KCR2 191106Z 36013KT 05/M03 A3023 RMK A01 T00471025  RH  060%=      5-min Rain = 0
KCR2 191107Z 35015KT 05/M03 A3023 RMK A01 T00461025  RH  060%=      5-min Rain = 0
KCR2 191108Z 35014KT 05/M03 A3023 RMK A01 T00461026  RH  060%=      5-min Rain = 0
KCR2 191109Z 35013KT 05/M03 A3023 RMK A01 T00461026  RH  059%=      5-min Rain = 0
KCR2 191110Z 35013KT 05/M03 A3023 RMK A01 T00461026  RH  059%=      5-min Rain = 0
KCR2 191111Z 35012KT 05/M03 A3023 RMK A01 T00461026  RH  059%=      5-min Rain = 0
KCR2 191112Z 34011G16KT 05/M03 A3023 RMK A01 T00461026  RH  060%=      5-min Rain = 0
KCR2 191113Z 35012KT 05/M03 A3023 RMK A01 T00451026  RH  060%=      5-min Rain = 0
KCR2 191114Z 34013G19KT 05/M03 A3024 RMK A01 T00451026  RH  060%=      5-min Rain = 0
KCR2 191115Z 34015G20KT 05/M03 A3024 RMK A01 T00451027  RH  059%=      5-min Rain = 0
KCR2 191116Z 34012G17KT 05/M03 A3024 RMK A01 T00461027  RH  059%=      5-min Rain = 0
KCR2 191117Z 34012KT 05/M03 A3024 RMK A01 T00461027  RH  059%=      5-min Rain = 0
KCR2 191118Z 33014KT 05/M03 A3024 RMK A01 T00461027  RH  059%=      5-min Rain = 0
KCR2 191119Z 34012KT 05/M03 A3024 RMK A01 T00461027  RH  059%=      5-min Rain = 0
KCR2 191120Z 34013KT 05/M03 A3024 RMK A01 T00461027  RH  059%=      5-min Rain = 0
KCR2 191121Z 33010KT 05/M03 A3024 RMK A01 T00451027  RH  059%=      5-min Rain = 0
KCR2 191122Z 33011KT 05/M03 A3024 RMK A01 T00451027  RH  059%=      5-min Rain = 0
KCR2 191123Z 33009KT 05/M03 A3024 RMK A01 T00451027  RH  059%=      5-min Rain = 0
KCR2 191124Z 34010KT 04/M03 A3024 RMK A01 T00441028  RH  060%=      5-min Rain = 0
KCR2 191125Z 33008KT 04/M03 A3024 RMK A01 T00441027  RH  060%=      5-min Rain = 0
KCR2 191126Z 33012KT 04/M03 A3024 RMK A01 T00441027  RH  060%=      5-min Rain = 0
KCR2 191127Z 33010KT 04/M03 A3024 RMK A01 T00441027  RH  060%=      5-min Rain = 0
KCR2 191128Z 33013KT 04/M03 A3024 RMK A01 T00441028  RH  060%=      5-min Rain = 0
KCR2 191129Z 33012KT 04/M03 A3024 RMK A01 T00441027  RH  060%=      5-min Rain = 0
KCR2 191130Z 33010KT 04/M03 A3025 RMK A01 T00441028  RH  060%=      5-min Rain = 0
KCR2 191131Z 33009KT 04/M03 A3024 RMK A01 T00441027  RH  060%=      5-min Rain = 0
KCR2 191132Z 32010KT 04/M03 A3024 RMK A01 T00441027  RH  060%=      5-min Rain = 0
KCR2 191133Z 33009KT 04/M03 A3025 RMK A01 T00431027  RH  060%=      5-min Rain = 0
KCR2 191134Z 33009KT 04/M03 A3025 RMK A01 T00431028  RH  060%=      5-min Rain = 0
KCR2 191135Z 33008KT 04/M03 A3025 RMK A01 T00421028  RH  061%=      5-min Rain = 0
KCR2 191136Z 32008KT 04/M03 A3025 RMK A01 T00411028  RH  061%=      5-min Rain = 0
KCR2 191137Z 33008KT 04/M03 A3025 RMK A01 T00401028  RH  061%=      5-min Rain = 0
KCR2 191138Z 32008KT 04/M03 A3025 RMK A01 T00401028  RH  061%=      5-min Rain = 0
KCR2 191139Z 32008KT 04/M03 A3025 RMK A01 T00401027  RH  062%=      5-min Rain = 0
KCR2 191140Z 31006KT 04/M03 A3025 RMK A01 T00391027  RH  062%=      5-min Rain = 0
KCR2 191141Z 32008KT 04/M03 A3025 RMK A01 T00381027  RH  062%=      5-min Rain = 0
KCR2 191142Z 32007KT 04/M03 A3025 RMK A01 T00381027  RH  062%=      5-min Rain = 0
KCR2 191143Z 32006KT 04/M03 A3025 RMK A01 T00371027  RH  063%=      5-min Rain = 0
KCR2 191144Z 32006KT 04/M03 A3025 RMK A01 T00371027  RH  063%=      5-min Rain = 0
KCR2 191145Z 33006KT 04/M03 A3025 RMK A01 T00361027  RH  063%=      5-min Rain = 0
KCR2 191146Z 32007KT 04/M03 A3025 RMK A01 T00351028  RH  063%=      5-min Rain = 0
KCR2 191147Z 31007KT 04/M03 A3025 RMK A01 T00361028  RH  063%=      5-min Rain = 0
KCR2 191148Z 32008KT 04/M03 A3025 RMK A01 T00361027  RH  063%=      5-min Rain = 0
KCR2 191149Z 32008KT 04/M03 A3025 RMK A01 T00361027  RH  063%=      5-min Rain = 0
KCR2 191150Z 32007KT 04/M03 A3025 RMK A01 T00351027  RH  064%=      5-min Rain = 0
KCR2 191151Z 32007KT 04/M03 A3026 RMK A01 T00351027  RH  064%=      5-min Rain = 0
KCR2 191152Z 32006KT 04/M03 A3026 RMK A01 T00351027  RH  064%=      5-min Rain = 0
KCR2 191153Z 31006KT 03/M03 A3026 RMK A01 T00341028  RH  064%=      5-min Rain = 0
KCR2 191154Z 32006KT 03/M03 A3026 RMK A01 T00331028  RH  064%=      5-min Rain = 0
KCR2 191155Z 31007KT 03/M03 A3026 RMK A01 T00331027  RH  065%=      5-min Rain = 0
KCR2 191156Z 32005KT 03/M03 A3026 RMK A01 T00331028  RH  064%=      5-min Rain = 0
KCR2 191157Z 31007KT 03/M03 A3026 RMK A01 T00321028  RH  065%=      5-min Rain = 0
KCR2 191158Z 32007KT 03/M03 A3026 RMK A01 T00321027  RH  065%=      5-min Rain = 0
KCR2 191159Z 32007KT 03/M03 A3026 RMK A01 T00331027  RH  065%=      5-min Rain = 0
KCR2 191200Z 32007KT 03/M03 A3026 RMK A01 T00341026  RH  064%=      5-min Rain = 0
KCR2 191201Z 32006KT 03/M03 A3026 RMK A01 T00341027  RH  064%=      5-min Rain = 0
KCR2 191202Z 32008KT 03/M03 A3026 RMK A01 T00341027  RH  064%=      5-min Rain = 0
KCR2 191203Z 33008KT 04/M03 A3026 RMK A01 T00351027  RH  064%=      5-min Rain = 0
KCR2 191204Z 32008KT 04/M03 A3026 RMK A01 T00351027  RH  064%=      5-min Rain = 0
KCR2 191205Z 33006KT 04/M03 A3026 RMK A01 T00361027  RH  064%=      5-min Rain = 0
KCR2 191206Z 33008KT 04/M03 A3026 RMK A01 T00351027  RH  064%=      5-min Rain = 0
KCR2 191207Z 32007KT 04/M03 A3026 RMK A01 T00361027  RH  064%=      5-min Rain = 0
KCR2 191208Z 32007KT 04/M03 A3026 RMK A01 T00361027  RH  063%=      5-min Rain = 0
KCR2 191209Z 32006KT 04/M03 A3027 RMK A01 T00361027  RH  063%=      5-min Rain = 0
KCR2 191210Z 33006KT 04/M03 A3027 RMK A01 T00361027  RH  064%=      5-min Rain = 0
KCR2 191211Z 31005KT 04/M03 A3027 RMK A01 T00351027  RH  064%=      5-min Rain = 0
KCR2 191212Z 31005KT 04/M03 A3027 RMK A01 T00351027  RH  064%=      5-min Rain = 0
KCR2 191213Z 31005KT 04/M03 A3027 RMK A01 T00351027  RH  064%=      5-min Rain = 0
KCR2 191214Z 31004KT 03/M03 A3027 RMK A01 T00341027  RH  064%=      5-min Rain = 0
KCR2 191215Z 30004KT 03/M03 A3027 RMK A01 T00341027  RH  064%=      5-min Rain = 0
KCR2 191216Z 30004KT 03/M03 A3027 RMK A01 T00341028  RH  064%=      5-min Rain = 0
KCR2 191217Z 30003KT 03/M03 A3027 RMK A01 T00331028  RH  064%=      5-min Rain = 0
KCR2 191218Z 29003KT 03/M03 A3027 RMK A01 T00331028  RH  064%=      5-min Rain = 0
KCR2 191219Z 30004KT 03/M03 A3027 RMK A01 T00331028  RH  065%=      5-min Rain = 0
KCR2 191220Z 29004KT 03/M03 A3027 RMK A01 T00321028  RH  065%=      5-min Rain = 0
KCR2 191221Z 29003KT 03/M03 A3027 RMK A01 T00321028  RH  065%=      5-min Rain = 0
KCR2 191222Z 28003KT 03/M03 A3027 RMK A01 T00321028  RH  065%=      5-min Rain = 0
KCR2 191223Z 28003KT 03/M03 A3027 RMK A01 T00321028  RH  065%=      5-min Rain = 0
KCR2 191224Z 29003KT 03/M03 A3027 RMK A01 T00321028  RH  065%=      5-min Rain = 0
KCR2 191225Z 29003KT 03/M03 A3027 RMK A01 T00321028  RH  065%=      5-min Rain = 0
KCR2 191226Z 29003KT 03/M03 A3027 RMK A01 T00321028  RH  065%=      5-min Rain = 0
KCR2 191227Z 28003KT 03/M03 A3028 RMK A01 T00311028  RH  065%=      5-min Rain = 0
KCR2 191228Z 29004KT 03/M03 A3028 RMK A01 T00311028  RH  065%=      5-min Rain = 0
KCR2 191229Z 29003KT 03/M03 A3028 RMK A01 T00311028  RH  065%=      5-min Rain = 0
KCR2 191230Z 29004KT 03/M03 A3028 RMK A01 T00311028  RH  065%=      5-min Rain = 0
KCR2 191231Z 29004KT 03/M03 A3028 RMK A01 T00311029  RH  065%=      5-min Rain = 0
KCR2 191232Z 28004KT 03/M03 A3028 RMK A01 T00311028  RH  065%=      5-min Rain = 0
KCR2 191233Z 29004KT 03/M03 A3028 RMK A01 T00321027  RH  065%=      5-min Rain = 0
KCR2 191234Z 30003KT 03/M03 A3028 RMK A01 T00321027  RH  065%=      5-min Rain = 0
KCR2 191235Z 29004KT 03/M03 A3028 RMK A01 T00321028  RH  065%=      5-min Rain = 0
KCR2 191236Z 29004KT 03/M03 A3028 RMK A01 T00321028  RH  065%=      5-min Rain = 0
KCR2 191237Z 27003KT 03/M03 A3028 RMK A01 T00321028  RH  065%=      5-min Rain = 0
KCR2 191238Z 27003KT 03/M03 A3029 RMK A01 T00311029  RH  065%=      5-min Rain = 0
KCR2 191239Z 29004KT 03/M03 A3029 RMK A01 T00301029  RH  065%=      5-min Rain = 0
KCR2 191240Z 29004KT 03/M03 A3029 RMK A01 T00291029  RH  066%=      5-min Rain = 0
KCR2 191241Z 28003KT 03/M03 A3029 RMK A01 T00291029  RH  066%=      5-min Rain = 0
KCR2 191242Z 27004KT 03/M03 A3029 RMK A01 T00291029  RH  066%=      5-min Rain = 0
KCR2 191243Z 28005KT 03/M03 A3029 RMK A01 T00261031  RH  066%=      5-min Rain = 0
KCR2 191244Z 28004KT 02/M03 A3029 RMK A01 T00241031  RH  067%=      5-min Rain = 0
KCR2 191245Z 27005KT 03/M03 A3029 RMK A01 T00251030  RH  067%=      5-min Rain = 0
KCR2 191246Z 27005KT 02/M03 A3029 RMK A01 T00241030  RH  067%=      5-min Rain = 0
KCR2 191247Z 27005KT 02/M03 A303 RMK A01 T00241030  RH  067%=      5-min Rain = 0
KCR2 191248Z 27005KT 02/M03 A303 RMK A01 T00241030  RH  068%=      5-min Rain = 0
KCR2 191249Z 27005KT 03/M03 A303 RMK A01 T00251029  RH  068%=      5-min Rain = 0
KCR2 191250Z 27006KT 02/M03 A303 RMK A01 T00241030  RH  068%=      5-min Rain = 0
KCR2 191251Z 27006KT 02/M03 A303 RMK A01 T00241030  RH  068%=      5-min Rain = 0
KCR2 191252Z 27005KT 02/M03 A303 RMK A01 T00231030  RH  068%=      5-min Rain = 0
KCR2 191253Z 27005KT 02/M03 A303 RMK A01 T00221031  RH  068%=      5-min Rain = 0
KCR2 191254Z 27005KT 02/M03 A303 RMK A01 T00211031  RH  069%=      5-min Rain = 0
KCR2 191255Z 27005KT 02/M03 A303 RMK A01 T00211030  RH  069%=      5-min Rain = 0
KCR2 191256Z 27005KT 02/M03 A303 RMK A01 T00211030  RH  069%=      5-min Rain = 0
KCR2 191257Z 27005KT 02/M03 A303 RMK A01 T00211030  RH  069%=      5-min Rain = 0
KCR2 191258Z 27005KT 02/M03 A303 RMK A01 T00211030  RH  069%=      5-min Rain = 0
KCR2 191259Z 27006KT 02/M03 A303 RMK A01 T00211030  RH  069%=      5-min Rain = 0
KCR2 191300Z 26006KT 02/M03 A303 RMK A01 T00211030  RH  069%=      5-min Rain = 0
KCR2 191301Z 27005KT 02/M03 A303 RMK A01 T00211030  RH  069%=      5-min Rain = 0
KCR2 191302Z 27005KT 02/M03 A303 RMK A01 T00211030  RH  069%=      5-min Rain = 0
KCR2 191303Z 26006KT 02/M03 A3031 RMK A01 T00211030  RH  069%=      5-min Rain = 0
KCR2 191304Z 27006KT 02/M03 A3031 RMK A01 T00211031  RH  069%=      5-min Rain = 0
KCR2 191305Z 26006KT 02/M03 A3031 RMK A01 T00201031  RH  069%=      5-min Rain = 0
KCR2 191306Z 27006KT 02/M03 A3031 RMK A01 T00191031  RH  069%=      5-min Rain = 0
KCR2 191307Z 26006KT 02/M03 A3031 RMK A01 T00191031  RH  070%=      5-min Rain = 0
KCR2 191308Z 27006KT 02/M03 A3031 RMK A01 T00181032  RH  070%=      5-min Rain = 0
KCR2 191309Z 27006KT 02/M03 A3031 RMK A01 T00161032  RH  070%=      5-min Rain = 0
KCR2 191310Z 27006KT 02/M03 A3031 RMK A01 T00161032  RH  071%=      5-min Rain = 0
KCR2 191311Z 27006KT 02/M03 A3031 RMK A01 T00151032  RH  071%=      5-min Rain = 0
KCR2 191312Z 27006KT 02/M03 A3031 RMK A01 T00151032  RH  071%=      5-min Rain = 0
KCR2 191313Z 27006KT 02/M03 A3031 RMK A01 T00151032  RH  071%=      5-min Rain = 0
KCR2 191314Z 27006KT 01/M03 A3031 RMK A01 T00141032  RH  071%=      5-min Rain = 0
KCR2 191315Z 26006KT 01/M03 A3031 RMK A01 T00141032  RH  072%=      5-min Rain = 0
KCR2 191316Z 26006KT 01/M03 A3031 RMK A01 T00141031  RH  072%=      5-min Rain = 0
KCR2 191317Z 26006KT 01/M03 A3031 RMK A01 T00141031  RH  072%=      5-min Rain = 0
KCR2 191318Z 26007KT 01/M03 A3031 RMK A01 T00141031  RH  072%=      5-min Rain = 0
KCR2 191319Z 26007KT 01/M03 A3032 RMK A01 T00141031  RH  072%=      5-min Rain = 0
KCR2 191320Z 26007KT 01/M03 A3032 RMK A01 T00131031  RH  072%=      5-min Rain = 0
KCR2 191321Z 26007KT 01/M03 A3032 RMK A01 T00141031  RH  072%=      5-min Rain = 0
KCR2 191322Z 27006KT 01/M03 A3032 RMK A01 T00141030  RH  073%=      5-min Rain = 0
KCR2 191323Z 27006KT 01/M03 A3032 RMK A01 T00141030  RH  073%=      5-min Rain = 0
KCR2 191324Z 26007KT 01/M03 A3032 RMK A01 T00141030  RH  072%=      5-min Rain = 0
KCR2 191325Z 27007KT 02/M03 A3032 RMK A01 T00151030  RH  072%=      5-min Rain = 0
KCR2 191326Z 27007KT 02/M03 A3032 RMK A01 T00161030  RH  071%=      5-min Rain = 0
KCR2 191327Z 27007KT 02/M03 A3032 RMK A01 T00161031  RH  071%=      5-min Rain = 0
KCR2 191328Z 27007KT 02/M03 A3032 RMK A01 T00161030  RH  071%=      5-min Rain = 0
KCR2 191329Z 27007KT 02/M03 A3032 RMK A01 T00171030  RH  071%=      5-min Rain = 0
KCR2 191330Z 27006KT 02/M03 A3032 RMK A01 T00171030  RH  071%=      5-min Rain = 0
KCR2 191331Z 27007KT 02/M03 A3032 RMK A01 T00161031  RH  071%=      5-min Rain = 0
KCR2 191332Z 27007KT 02/M03 A3032 RMK A01 T00151031  RH  071%=      5-min Rain = 0
KCR2 191333Z 28006KT 02/M03 A3032 RMK A01 T00151031  RH  072%=      5-min Rain = 0
KCR2 191334Z 28006KT 02/M03 A3032 RMK A01 T00151031  RH  072%=      5-min Rain = 0
KCR2 191335Z 27006KT 01/M03 A3032 RMK A01 T00131032  RH  072%=      5-min Rain = 0
KCR2 191336Z 28007KT 01/M03 A3033 RMK A01 T00121032  RH  073%=      5-min Rain = 0
KCR2 191337Z 28007KT 01/M03 A3033 RMK A01 T00121031  RH  073%=      5-min Rain = 0
KCR2 191338Z 28008KT 01/M03 A3033 RMK A01 T00121031  RH  073%=      5-min Rain = 0
KCR2 191339Z 28008KT 01/M03 A3033 RMK A01 T00121031  RH  073%=      5-min Rain = 0
KCR2 191340Z 28008KT 01/M03 A3033 RMK A01 T00121031  RH  073%=      5-min Rain = 0
KCR2 191341Z 28008KT 01/M03 A3033 RMK A01 T00121031  RH  073%=      5-min Rain = 0
KCR2 191342Z 28008KT 01/M03 A3033 RMK A01 T00121031  RH  073%=      5-min Rain = 0
KCR2 191343Z 28008KT 01/M03 A3033 RMK A01 T00131031  RH  073%=      5-min Rain = 0
KCR2 191344Z 28007KT 01/M03 A3033 RMK A01 T00131031  RH  073%=      5-min Rain = 0
KCR2 191345Z 28007KT 01/M03 A3033 RMK A01 T00121031  RH  073%=      5-min Rain = 0
KCR2 191346Z 28008KT 01/M03 A3033 RMK A01 T00121031  RH  073%=      5-min Rain = 0
KCR2 191347Z 27007KT 01/M03 A3033 RMK A01 T00131030  RH  073%=      5-min Rain = 0
KCR2 191348Z 28008KT 01/M03 A3033 RMK A01 T00131031  RH  073%=      5-min Rain = 0
KCR2 191349Z 28006KT 01/M03 A3033 RMK A01 T00131031  RH  073%=      5-min Rain = 0
KCR2 191350Z 28006KT 01/M03 A3033 RMK A01 T00121031  RH  073%=      5-min Rain = 0
KCR2 191351Z 28006KT 01/M03 A3033 RMK A01 T00111032  RH  073%=      5-min Rain = 0
KCR2 191352Z 28006KT 01/M03 A3033 RMK A01 T00091033  RH  073%=      5-min Rain = 0
KCR2 191353Z 28006KT 01/M03 A3033 RMK A01 T00081033  RH  074%=      5-min Rain = 0
KCR2 191354Z 28006KT 01/M03 A3033 RMK A01 T00081033  RH  074%=      5-min Rain = 0
KCR2 191355Z 29007KT 01/M03 A3033 RMK A01 T00061033  RH  075%=      5-min Rain = 0
KCR2 191356Z 28007KT 01/M03 A3033 RMK A01 T00061033  RH  075%=      5-min Rain = 0
KCR2 191357Z 28007KT 01/M03 A3033 RMK A01 T00071032  RH  075%=      5-min Rain = 0
KCR2 191358Z 28007KT 01/M03 A3033 RMK A01 T00071032  RH  075%=      5-min Rain = 0
KCR2 191359Z 28006KT 01/M03 A3033 RMK A01 T00091031  RH  075%=      5-min Rain = 0
KCR2 191400Z 28005KT 01/M03 A3033 RMK A01 T00101031  RH  074%=      5-min Rain = 0
KCR2 191401Z 27005KT 01/M03 A3033 RMK A01 T00101031  RH  074%=      5-min Rain = 0
KCR2 191402Z 27005KT 01/M03 A3033 RMK A01 T00101032  RH  073%=      5-min Rain = 0
KCR2 191403Z 27006KT 01/M03 A3033 RMK A01 T00111032  RH  073%=      5-min Rain = 0
KCR2 191404Z 27005KT 01/M03 A3033 RMK A01 T00101032  RH  074%=      5-min Rain = 0
KCR2 191405Z 27006KT 01/M03 A3033 RMK A01 T00111031  RH  074%=      5-min Rain = 0
KCR2 191406Z 27006KT 01/M03 A3033 RMK A01 T00111032  RH  073%=      5-min Rain = 0
KCR2 191407Z 27005KT 01/M03 A3033 RMK A01 T00111032  RH  073%=      5-min Rain = 0
KCR2 191408Z 27005KT 01/M03 A3034 RMK A01 T00111032  RH  073%=      5-min Rain = 0
KCR2 191409Z 27005KT 01/M03 A3034 RMK A01 T00111032  RH  073%=      5-min Rain = 0
KCR2 191410Z 27006KT 01/M03 A3034 RMK A01 T00111032  RH  073%=      5-min Rain = 0
KCR2 191411Z 27005KT 01/M03 A3034 RMK A01 T00111031  RH  073%=      5-min Rain = 0
KCR2 191412Z 28005KT 01/M03 A3034 RMK A01 T00111031  RH  073%=      5-min Rain = 0
KCR2 191413Z 28005KT 01/M03 A3034 RMK A01 T00111032  RH  073%=      5-min Rain = 0
KCR2 191414Z 27006KT 01/M03 A3034 RMK A01 T00111032  RH  073%=      5-min Rain = 0
KCR2 191415Z 27005KT 01/M03 A3034 RMK A01 T00111032  RH  073%=      5-min Rain = 0
KCR2 191416Z 27006KT 01/M03 A3034 RMK A01 T00111031  RH  074%=      5-min Rain = 0
KCR2 191417Z 27005KT 01/M03 A3034 RMK A01 T00111031  RH  074%=      5-min Rain = 0
KCR2 191418Z 27006KT 01/M03 A3034 RMK A01 T00111031  RH  074%=      5-min Rain = 0
KCR2 191419Z 26007KT 01/M03 A3034 RMK A01 T00121030  RH  074%=      5-min Rain = 0
KCR2 191420Z 26006KT 01/M03 A3034 RMK A01 T00121030  RH  074%=      5-min Rain = 0
KCR2 191421Z 26005KT 01/M03 A3034 RMK A01 T00121030  RH  074%=      5-min Rain = 0
KCR2 191422Z 27005KT 01/M03 A3034 RMK A01 T00121030  RH  074%=      5-min Rain = 0
KCR2 191423Z 26005KT 01/M03 A3034 RMK A01 T00131029  RH  074%=      5-min Rain = 0
KCR2 191424Z 26005KT 01/M03 A3034 RMK A01 T00131029  RH  074%=      5-min Rain = 0
KCR2 191425Z 26005KT 01/M03 A3034 RMK A01 T00141028  RH  074%=      5-min Rain = 0
KCR2 191426Z 27005KT 01/M03 A3034 RMK A01 T00141028  RH  073%=      5-min Rain = 0
KCR2 191427Z 27005KT 02/M03 A3034 RMK A01 T00151028  RH  073%=      5-min Rain = 0
KCR2 191428Z 26006KT 02/M03 A3034 RMK A01 T00151028  RH  073%=      5-min Rain = 0
KCR2 191429Z 26005KT 02/M03 A3034 RMK A01 T00161028  RH  073%=      5-min Rain = 0
KCR2 191430Z 26005KT 02/M03 A3034 RMK A01 T00161027  RH  073%=      5-min Rain = 0
KCR2 191431Z 27005KT 02/M03 A3034 RMK A01 T00171027  RH  073%=      5-min Rain = 0
KCR2 191432Z 26006KT 02/M03 A3035 RMK A01 T00171027  RH  073%=      5-min Rain = 0
KCR2 191433Z 26005KT 02/M03 A3035 RMK A01 T00181027  RH  072%=      5-min Rain = 0
KCR2 191434Z 27005KT 02/M03 A3035 RMK A01 T00191026  RH  072%=      5-min Rain = 0
KCR2 191435Z 27005KT 02/M03 A3035 RMK A01 T00191026  RH  072%=      5-min Rain = 0
KCR2 191436Z 26005KT 02/M03 A3035 RMK A01 T00201025  RH  072%=      5-min Rain = 0
KCR2 191437Z 27005KT 02/M03 A3035 RMK A01 T00201025  RH  072%=      5-min Rain = 0
KCR2 191438Z 27005KT 02/M03 A3035 RMK A01 T00211025  RH  072%=      5-min Rain = 0
KCR2 191439Z 27005KT 02/M02 A3035 RMK A01 T00221024  RH  071%=      5-min Rain = 0
KCR2 191440Z 27005KT 02/M03 A3035 RMK A01 T00231025  RH  071%=      5-min Rain = 0
KCR2 191441Z 27005KT 02/M02 A3035 RMK A01 T00241024  RH  070%=      5-min Rain = 0
KCR2 191442Z 27006KT 03/M02 A3035 RMK A01 T00251024  RH  070%=      5-min Rain = 0
KCR2 191443Z 27005KT 03/M02 A3035 RMK A01 T00261024  RH  070%=      5-min Rain = 0
KCR2 191444Z 27006KT 03/M02 A3035 RMK A01 T00261024  RH  069%=      5-min Rain = 0
KCR2 191445Z 27005KT 03/M02 A3035 RMK A01 T00271024  RH  069%=      5-min Rain = 0
KCR2 191446Z 28005KT 03/M03 A3035 RMK A01 T00271025  RH  069%=      5-min Rain = 0
KCR2 191447Z 27005KT 03/M02 A3035 RMK A01 T00281024  RH  069%=      5-min Rain = 0
KCR2 191448Z 27005KT 03/M02 A3035 RMK A01 T00281023  RH  069%=      5-min Rain = 0
KCR2 191449Z 27005KT 03/M02 A3035 RMK A01 T00291023  RH  069%=      5-min Rain = 0
KCR2 191450Z 28006KT 03/M02 A3035 RMK A01 T00301024  RH  068%=      5-min Rain = 0
KCR2 191451Z 28006KT 03/M02 A3035 RMK A01 T00311023  RH  068%=      5-min Rain = 0
KCR2 191452Z 28005KT 03/M02 A3036 RMK A01 T00321023  RH  067%=      5-min Rain = 0
KCR2 191453Z 28005KT 03/M02 A3036 RMK A01 T00321023  RH  067%=      5-min Rain = 0
KCR2 191454Z 28006KT 03/M02 A3036 RMK A01 T00331022  RH  067%=      5-min Rain = 0
KCR2 191455Z 28005KT 03/M02 A3036 RMK A01 T00341022  RH  067%=      5-min Rain = 0
KCR2 191456Z 28006KT 04/M02 A3035 RMK A01 T00351022  RH  066%=      5-min Rain = 0
KCR2 191457Z 28005KT 04/M02 A3035 RMK A01 T00361022  RH  066%=      5-min Rain = 0
KCR2 191458Z 29007KT 04/M02 A3036 RMK A01 T00371023  RH  065%=      5-min Rain = 0
KCR2 191459Z 29007KT 04/M02 A3036 RMK A01 T00381023  RH  064%=      5-min Rain = 0
KCR2 191500Z 29007KT 04/M02 A3036 RMK A01 T00391022  RH  064%=      5-min Rain = 0
KCR2 191501Z 28007KT 04/M02 A3036 RMK A01 T00401022  RH  064%=      5-min Rain = 0
KCR2 191502Z 29007KT 04/M02 A3036 RMK A01 T00411023  RH  063%=      5-min Rain = 0
KCR2 191503Z 29008KT 04/M02 A3036 RMK A01 T00421023  RH  063%=      5-min Rain = 0
KCR2 191504Z 28008KT 04/M02 A3036 RMK A01 T00431024  RH  062%=      5-min Rain = 0
KCR2 191505Z 29008KT 04/M02 A3036 RMK A01 T00431024  RH  062%=      5-min Rain = 0
KCR2 191506Z 29009KT 04/M02 A3036 RMK A01 T00431024  RH  062%=      5-min Rain = 0
KCR2 191507Z 28008KT 05/M02 A3036 RMK A01 T00451023  RH  061%=      5-min Rain = 0
KCR2 191508Z 29008KT 05/M02 A3036 RMK A01 T00461022  RH  061%=      5-min Rain = 0
KCR2 191509Z 29008KT 05/M02 A3036 RMK A01 T00471023  RH  061%=      5-min Rain = 0
KCR2 191510Z 29008KT 05/M02 A3036 RMK A01 T00481023  RH  060%=      5-min Rain = 0
KCR2 191511Z 28008KT 05/M02 A3036 RMK A01 T00481024  RH  059%=      5-min Rain = 0
KCR2 191512Z 28008KT 05/M02 A3036 RMK A01 T00491024  RH  059%=      5-min Rain = 0
KCR2 191513Z 29008KT 05/M02 A3036 RMK A01 T00501023  RH  059%=      5-min Rain = 0
KCR2 191514Z 29009KT 05/M02 A3036 RMK A01 T00511022  RH  059%=      5-min Rain = 0
KCR2 191515Z 30007KT 05/M02 A3036 RMK A01 T00521024  RH  058%=      5-min Rain = 0
KCR2 191516Z 29007KT 05/M02 A3036 RMK A01 T00531023  RH  058%=      5-min Rain = 0
KCR2 191517Z 30006KT 05/M02 A3036 RMK A01 T00541024  RH  057%=      5-min Rain = 0
KCR2 191518Z 29007KT 05/M02 A3036 RMK A01 T00541024  RH  057%=      5-min Rain = 0
KCR2 191519Z 30006KT 05/M02 A3036 RMK A01 T00541024  RH  057%=      5-min Rain = 0
KCR2 191520Z 30007KT 06/M02 A3036 RMK A01 T00551024  RH  057%=      5-min Rain = 0
KCR2 191521Z 31006KT 06/M03 A3037 RMK A01 T00551025  RH  056%=      5-min Rain = 0
KCR2 191522Z 29007KT 06/M02 A3037 RMK A01 T00561024  RH  056%=      5-min Rain = 0
KCR2 191523Z 29008KT 06/M02 A3037 RMK A01 T00581022  RH  056%=      5-min Rain = 0
KCR2 191524Z 30008KT 06/M02 A3037 RMK A01 T00581024  RH  055%=      5-min Rain = 0
KCR2 191525Z 30007KT 06/M02 A3037 RMK A01 T00591024  RH  055%=      5-min Rain = 0
KCR2 191526Z 30009KT 06/M02 A3037 RMK A01 T00601024  RH  055%=      5-min Rain = 0
KCR2 191527Z 31008KT 06/M03 A3037 RMK A01 T00601025  RH  054%=      5-min Rain = 0
KCR2 191528Z 31007KT 06/M02 A3037 RMK A01 T00611023  RH  055%=      5-min Rain = 0
KCR2 191529Z 31008KT 06/M02 A3037 RMK A01 T00631024  RH  054%=      5-min Rain = 0
KCR2 191530Z 31007KT 06/M03 A3037 RMK A01 T00641025  RH  053%=      5-min Rain = 0
KCR2 191531Z 33008KT 06/M02 A3037 RMK A01 T00641024  RH  053%=      5-min Rain = 0
KCR2 191532Z 33009KT 07/M02 A3037 RMK A01 T00651024  RH  053%=      5-min Rain = 0
KCR2 191533Z 33008KT 07/M03 A3037 RMK A01 T00661025  RH  052%=      5-min Rain = 0
KCR2 191534Z 33008KT 07/M02 A3037 RMK A01 T00681024  RH  052%=      5-min Rain = 0
KCR2 191535Z 32009KT 07/M03 A3037 RMK A01 T00681025  RH  051%=      5-min Rain = 0
KCR2 191536Z 33007G12KT 07/M02 A3037 RMK A01 T00691023  RH  052%=      5-min Rain = 0
KCR2 191537Z 33010KT 07/M03 A3037 RMK A01 T00701025  RH  051%=      5-min Rain = 0
KCR2 191538Z 33007KT 07/M03 A3037 RMK A01 T00701025  RH  051%=      5-min Rain = 0
KCR2 191539Z 34010KT 07/M02 A3037 RMK A01 T00711024  RH  051%=      5-min Rain = 0
KCR2 191540Z 33008KT 07/M03 A3037 RMK A01 T00711026  RH  050%=      5-min Rain = 0
KCR2 191541Z 33009KT 07/M03 A3037 RMK A01 T00711025  RH  050%=      5-min Rain = 0
KCR2 191542Z 33007KT 07/M03 A3037 RMK A01 T00711025  RH  050%=      5-min Rain = 0
KCR2 191543Z 33009KT 07/M03 A3038 RMK A01 T00721025  RH  050%=      5-min Rain = 0
KCR2 191544Z 32010KT 07/M03 A3038 RMK A01 T00711026  RH  050%=      5-min Rain = 0
KCR2 191545Z 32009KT 07/M03 A3038 RMK A01 T00711027  RH  050%=      5-min Rain = 0
KCR2 191546Z 30008KT 07/M03 A3038 RMK A01 T00711025  RH  050%=      5-min Rain = 0
KCR2 191547Z 32008KT 07/M02 A3038 RMK A01 T00731024  RH  050%=      5-min Rain = 0
KCR2 191548Z 32008KT 08/M02 A3038 RMK A01 T00751023  RH  050%=      5-min Rain = 0
KCR2 191549Z 32008KT 08/M03 A3038 RMK A01 T00751025  RH  049%=      5-min Rain = 0
KCR2 191550Z 32008KT 08/M03 A3038 RMK A01 T00751025  RH  049%=      5-min Rain = 0
KCR2 191551Z 33008KT 08/M03 A3038 RMK A01 T00751026  RH  049%=      5-min Rain = 0
KCR2 191552Z 32007KT 08/M03 A3038 RMK A01 T00751025  RH  049%=      5-min Rain = 0
KCR2 191553Z 34007KT 08/M03 A3038 RMK A01 T00751025  RH  049%=      5-min Rain = 0
KCR2 191554Z 34008KT 08/M03 A3038 RMK A01 T00761026  RH  048%=      5-min Rain = 0
KCR2 191555Z 32008KT 08/M03 A3038 RMK A01 T00771028  RH  048%=      5-min Rain = 0
KCR2 191556Z 33008KT 08/M03 A3038 RMK A01 T00771027  RH  048%=      5-min Rain = 0
KCR2 191557Z 34009KT 08/M03 A3038 RMK A01 T00771027  RH  048%=      5-min Rain = 0
KCR2 191558Z 35007KT 08/M03 A3038 RMK A01 T00771027  RH  047%=      5-min Rain = 0
KCR2 191559Z 34007KT 08/M03 A3039 RMK A01 T00781027  RH  047%=      5-min Rain = 0
KCR2 191600Z 34007KT 08/M03 A3039 RMK A01 T00801026  RH  047%=      5-min Rain = 0
KCR2 191601Z 32006KT 08/M03 A3039 RMK A01 T00811026  RH  047%=      5-min Rain = 0
KCR2 191602Z 32005KT 08/M03 A3039 RMK A01 T00811026  RH  047%=      5-min Rain = 0
KCR2 191603Z 34007KT 08/M02 A3039 RMK A01 T00831022  RH  047%=      5-min Rain = 0
KCR2 191604Z 32010KT 09/M02 A3039 RMK A01 T00851024  RH  046%=      5-min Rain = 0
KCR2 191605Z 33010KT 08/M03 A3039 RMK A01 T00841028  RH  045%=      5-min Rain = 0
KCR2 191606Z 34011KT 08/M03 A3039 RMK A01 T00831027  RH  046%=      5-min Rain = 0
KCR2 191607Z 34011KT 08/M03 A3039 RMK A01 T00831029  RH  045%=      5-min Rain = 0
KCR2 191608Z 34011KT 08/M03 A3039 RMK A01 T00831029  RH  045%=      5-min Rain = 0
KCR2 191609Z 34009KT 08/M03 A3039 RMK A01 T00821030  RH  045%=      5-min Rain = 0
KCR2 191610Z 34010KT 08/M03 A3039 RMK A01 T00821029  RH  045%=      5-min Rain = 0
KCR2 191611Z 33008KT 08/M03 A3039 RMK A01 T00831027  RH  046%=      5-min Rain = 0
KCR2 191612Z 34012KT 09/M02 A3039 RMK A01 T00861024  RH  046%=      5-min Rain = 0
KCR2 191613Z 35012KT 09/M03 A3039 RMK A01 T00861028  RH  044%=      5-min Rain = 0
KCR2 191614Z 34009KT 09/M03 A3039 RMK A01 T00851030  RH  044%=      5-min Rain = 0
KCR2 191615Z 34007KT 08/M03 A3039 RMK A01 T00831031  RH  045%=      5-min Rain = 0
KCR2 191616Z 34007KT 08/M03 A3039 RMK A01 T00831028  RH  046%=      5-min Rain = 0
KCR2 191617Z 32012KT 09/M03 A3039 RMK A01 T00851027  RH  045%=      5-min Rain = 0
KCR2 191618Z 34010KT 09/M03 A3039 RMK A01 T00851028  RH  045%=      5-min Rain = 0
KCR2 191619Z 34010KT 09/M03 A3039 RMK A01 T00861027  RH  045%=      5-min Rain = 0
KCR2 191620Z 34010KT 09/M03 A3039 RMK A01 T00871027  RH  045%=      5-min Rain = 0
KCR2 191621Z 33013KT 09/M03 A3039 RMK A01 T00871028  RH  044%=      5-min Rain = 0
KCR2 191622Z 34011KT 09/M03 A3039 RMK A01 T00871029  RH  044%=      5-min Rain = 0
KCR2 191623Z 35010KT 09/M03 A3039 RMK A01 T00871029  RH  044%=      5-min Rain = 0
KCR2 191624Z 36011KT 09/M03 A3039 RMK A01 T00871030  RH  044%=      5-min Rain = 0
KCR2 191625Z 00010KT 09/M03 A3039 RMK A01 T00871028  RH  044%=      5-min Rain = 0
KCR2 191626Z 34009KT 09/M03 A3039 RMK A01 T00881027  RH  044%=      5-min Rain = 0
KCR2 191627Z 33010KT 09/M03 A3039 RMK A01 T00891028  RH  044%=      5-min Rain = 0
KCR2 191628Z 33009KT 09/M03 A3039 RMK A01 T00891027  RH  044%=      5-min Rain = 0
KCR2 191629Z 34010KT 09/M03 A3039 RMK A01 T00901027  RH  044%=      5-min Rain = 0
KCR2 191630Z 33011KT 09/M03 A3039 RMK A01 T00911027  RH  044%=      5-min Rain = 0
KCR2 191631Z 33010KT 09/M03 A3039 RMK A01 T00911027  RH  043%=      5-min Rain = 0
KCR2 191632Z 35008KT 09/M03 A3039 RMK A01 T00891029  RH  043%=      5-min Rain = 0
KCR2 191633Z 35009KT 09/M03 A3039 RMK A01 T00881027  RH  044%=      5-min Rain = 0
KCR2 191634Z 35007KT 09/M03 A3039 RMK A01 T00901025  RH  044%=      5-min Rain = 0
KCR2 191635Z 34008KT 09/M02 A3039 RMK A01 T00931024  RH  044%=      5-min Rain = 0
KCR2 191636Z 34010KT 09/M03 A3039 RMK A01 T00941025  RH  043%=      5-min Rain = 0
KCR2 191637Z 00010KT 09/M03 A3039 RMK A01 T00931026  RH  043%=      5-min Rain = 0
KCR2 191638Z 36010KT 09/M03 A3039 RMK A01 T00931025  RH  044%=      5-min Rain = 0
KCR2 191639Z 36009KT 09/M03 A3039 RMK A01 T00931027  RH  043%=      5-min Rain = 0
KCR2 191640Z 35008KT 09/M03 A3039 RMK A01 T00911027  RH  043%=      5-min Rain = 0
KCR2 191641Z 35008KT 09/M03 A3039 RMK A01 T00931026  RH  043%=      5-min Rain = 0
KCR2 191642Z 35008G13KT 09/M03 A3039 RMK A01 T00941026  RH  043%=      5-min Rain = 0
KCR2 191643Z 36011KT 10/M03 A3039 RMK A01 T00951028  RH  042%=      5-min Rain = 0
KCR2 191644Z 36012KT 10/M03 A3039 RMK A01 T00961032  RH  041%=      5-min Rain = 0
KCR2 191645Z 01012KT 10/M03 A3039 RMK A01 T00971029  RH  041%=      5-min Rain = 0
KCR2 191646Z 00012KT 10/M03 A3039 RMK A01 T00981033  RH  040%=      5-min Rain = 0
KCR2 191647Z 01015KT 10/M03 A3039 RMK A01 T00971034  RH  039%=      5-min Rain = 0
KCR2 191648Z 02012G17KT 10/M04 A3039 RMK A01 T00981035  RH  039%=      5-min Rain = 0
KCR2 191649Z 02012KT 10/M03 A3039 RMK A01 T00981034  RH  039%=      5-min Rain = 0
KCR2 191650Z 01011KT 10/M03 A3039 RMK A01 T00981033  RH  040%=      5-min Rain = 0
KCR2 191651Z 02012KT 10/M03 A3039 RMK A01 T00991034  RH  039%=      5-min Rain = 0
KCR2 191652Z 02013KT 10/M04 A3039 RMK A01 T00991037  RH  038%=      5-min Rain = 0
KCR2 191653Z 02012KT 10/M04 A3039 RMK A01 T00981035  RH  039%=      5-min Rain = 0
KCR2 191654Z 01011KT 10/M03 A3039 RMK A01 T01011032  RH  039%=      5-min Rain = 0
KCR2 191655Z 00011KT 10/M03 A3039 RMK A01 T01031031  RH  039%=      5-min Rain = 0
KCR2 191656Z 02011KT 10/M03 A3039 RMK A01 T01031032  RH  039%=      5-min Rain = 0
KCR2 191657Z 02017KT 10/M03 A3039 RMK A01 T01031034  RH  038%=      5-min Rain = 0
KCR2 191658Z 01013KT 10/M04 A3039 RMK A01 T01011039  RH  037%=      5-min Rain = 0
KCR2 191659Z 02013KT 10/M04 A3039 RMK A01 T00991038  RH  038%=      5-min Rain = 0
KCR2 191700Z 03012KT 10/M04 A3038 RMK A01 T01001037  RH  038%=      5-min Rain = 0
KCR2 191701Z 03017KT 10/M04 A3038 RMK A01 T00991037  RH  038%=      5-min Rain = 0
KCR2 191702Z 02016KT 10/M04 A3038 RMK A01 T01001036  RH  038%=      5-min Rain = 0
KCR2 191703Z 01012KT 10/M04 A3039 RMK A01 T01001036  RH  038%=      5-min Rain = 0
KCR2 191704Z 01012KT 10/M03 A3039 RMK A01 T01011033  RH  039%=      5-min Rain = 0
KCR2 191705Z 01015KT 10/M03 A3039 RMK A01 T01031034  RH  038%=      5-min Rain = 0
KCR2 191706Z 00016KT 10/M04 A3039 RMK A01 T01031037  RH  037%=      5-min Rain = 0
KCR2 191707Z 01016KT 10/M04 A3039 RMK A01 T01021037  RH  037%=      5-min Rain = 0
KCR2 191708Z 00014KT 10/M04 A3039 RMK A01 T01011038  RH  037%=      5-min Rain = 0
KCR2 191709Z 00012G17KT 10/M04 A3039 RMK A01 T01021036  RH  038%=      5-min Rain = 0
KCR2 191710Z 01013KT 10/M04 A3039 RMK A01 T01021037  RH  037%=      5-min Rain = 0
KCR2 191711Z 02016KT 10/M03 A3039 RMK A01 T01021034  RH  038%=      5-min Rain = 0
KCR2 191712Z 02016KT 10/M04 A3039 RMK A01 T01031038  RH  037%=      5-min Rain = 0
KCR2 191713Z 01013KT 10/M04 A3039 RMK A01 T01011038  RH  037%=      5-min Rain = 0
KCR2 191714Z 01014KT 10/M04 A3039 RMK A01 T01011036  RH  038%=      5-min Rain = 0
KCR2 191715Z 36014KT 10/M03 A3039 RMK A01 T01031034  RH  038%=      5-min Rain = 0
KCR2 191716Z 00015KT 10/M04 A3039 RMK A01 T01031035  RH  038%=      5-min Rain = 0
KCR2 191717Z 36012G18KT 10/M03 A3038 RMK A01 T01031034  RH  038%=      5-min Rain = 0
KCR2 191718Z 35017KT 11/M04 A3038 RMK A01 T01051036  RH  037%=      5-min Rain = 0
KCR2 191719Z 36015KT 11/M04 A3038 RMK A01 T01051037  RH  037%=      5-min Rain = 0
KCR2 191720Z 00013KT 10/M04 A3038 RMK A01 T01041036  RH  037%=      5-min Rain = 0
KCR2 191721Z 00014KT 11/M03 A3038 RMK A01 T01051034  RH  037%=      5-min Rain = 0
KCR2 191722Z 01013KT 11/M04 A3038 RMK A01 T01051035  RH  037%=      5-min Rain = 0
KCR2 191723Z 36015KT 10/M04 A3038 RMK A01 T01041036  RH  037%=      5-min Rain = 0
KCR2 191724Z 36016KT 11/M04 A3038 RMK A01 T01051037  RH  037%=      5-min Rain = 0
KCR2 191725Z 00015KT 11/M04 A3038 RMK A01 T01051037  RH  037%=      5-min Rain = 0
KCR2 191726Z 01013KT 10/M04 A3038 RMK A01 T01041035  RH  037%=      5-min Rain = 0
KCR2 191727Z 01012KT 11/M03 A3038 RMK A01 T01051034  RH  037%=      5-min Rain = 0
KCR2 191728Z 35013KT 11/M04 A3038 RMK A01 T01051035  RH  037%=      5-min Rain = 0
KCR2 191729Z 35011KT 10/M04 A3038 RMK A01 T01041036  RH  037%=      5-min Rain = 0
KCR2 191730Z 01010KT 10/M03 A3038 RMK A01 T01041031  RH  038%=      5-min Rain = 0
KCR2 191731Z 01013KT 11/M03 A3038 RMK A01 T01071032  RH  037%=      5-min Rain = 0
KCR2 191732Z 36012KT 11/M03 A3038 RMK A01 T01071033  RH  037%=      5-min Rain = 0
KCR2 191733Z 36012KT 11/M03 A3038 RMK A01 T01081033  RH  037%=      5-min Rain = 0
KCR2 191734Z 01013KT 11/M03 A3038 RMK A01 T01091034  RH  036%=      5-min Rain = 0
KCR2 191735Z 01014KT 11/M03 A3038 RMK A01 T01081034  RH  037%=      5-min Rain = 0
KCR2 191736Z 00015KT 11/M03 A3038 RMK A01 T01091034  RH  037%=      5-min Rain = 0
KCR2 191737Z 01015KT 11/M04 A3038 RMK A01 T01091036  RH  036%=      5-min Rain = 0
KCR2 191738Z 01013KT 11/M03 A3038 RMK A01 T01101034  RH  036%=      5-min Rain = 0
KCR2 191739Z 00013KT 11/M03 A3038 RMK A01 T01111034  RH  036%=      5-min Rain = 0
KCR2 191740Z 01011KT 11/M04 A3038 RMK A01 T01101035  RH  036%=      5-min Rain = 0
KCR2 191741Z 02010KT 11/M03 A3038 RMK A01 T01101034  RH  036%=      5-min Rain = 0
KCR2 191742Z 01013G18KT 11/M03 A3038 RMK A01 T01101032  RH  037%=      5-min Rain = 0
KCR2 191743Z 01016KT 11/M04 A3038 RMK A01 T01111036  RH  036%=      5-min Rain = 0
KCR2 191744Z 01014KT 11/M04 A3038 RMK A01 T01091037  RH  036%=      5-min Rain = 0
KCR2 191745Z 02013KT 11/M04 A3038 RMK A01 T01081035  RH  036%=      5-min Rain = 0
KCR2 191746Z 02012KT 11/M04 A3038 RMK A01 T01081035  RH  036%=      5-min Rain = 0
KCR2 191747Z 02011KT 11/M03 A3038 RMK A01 T01111031  RH  037%=      5-min Rain = 0
KCR2 191748Z 02011KT 11/M03 A3038 RMK A01 T01131030  RH  037%=      5-min Rain = 0
KCR2 191749Z 02015KT 11/M03 A3037 RMK A01 T01141033  RH  036%=      5-min Rain = 0
KCR2 191750Z 00015KT 11/M04 A3038 RMK A01 T01141036  RH  035%=      5-min Rain = 0
KCR2 191751Z 01012KT 11/M04 A3038 RMK A01 T01121039  RH  035%=      5-min Rain = 0
KCR2 191752Z 00010KT 11/M04 A3037 RMK A01 T01101036  RH  036%=      5-min Rain = 0
KCR2 191753Z 01011KT 11/M03 A3037 RMK A01 T01131033  RH  036%=      5-min Rain = 0
KCR2 191754Z 01014KT 11/M04 A3037 RMK A01 T01131037  RH  035%=      5-min Rain = 0
KCR2 191755Z 02016KT 11/M04 A3037 RMK A01 T01141038  RH  034%=      5-min Rain = 0
KCR2 191756Z 02014KT 11/M04 A3037 RMK A01 T01141038  RH  034%=      5-min Rain = 0
KCR2 191757Z 01014KT 12/M04 A3037 RMK A01 T01161035  RH  035%=      5-min Rain = 0
KCR2 191758Z 01014KT 12/M04 A3037 RMK A01 T01171037  RH  034%=      5-min Rain = 0
KCR2 191759Z 01011KT 12/M04 A3037 RMK A01 T01161036  RH  034%=      5-min Rain = 0
KCR2 191800Z 00014KT 12/M04 A3037 RMK A01 T01171035  RH  034%=      5-min Rain = 0
KCR2 191801Z 01011KT 12/M03 A3037 RMK A01 T01201033  RH  034%=      5-min Rain = 0
KCR2 191802Z 02013KT 12/M03 A3037 RMK A01 T01201034  RH  034%=      5-min Rain = 0
KCR2 191803Z 03012KT 12/M04 A3037 RMK A01 T01181039  RH  033%=      5-min Rain = 0
KCR2 191804Z 02010KT 11/M04 A3037 RMK A01 T01141038  RH  034%=      5-min Rain = 0
KCR2 191805Z 02011KT 12/M03 A3037 RMK A01 T01151034  RH  035%=      5-min Rain = 0
KCR2 191806Z 03012KT 12/M03 A3037 RMK A01 T01171031  RH  035%=      5-min Rain = 0
KCR2 191807Z 02010KT 12/M03 A3037 RMK A01 T01201031  RH  035%=      5-min Rain = 0
KCR2 191808Z 00010G15KT 12/M03 A3037 RMK A01 T01211030  RH  035%=      5-min Rain = 0
KCR2 191809Z 36015KT 12/M03 A3037 RMK A01 T01241033  RH  033%=      5-min Rain = 0
KCR2 191810Z 00016KT 12/M04 A3037 RMK A01 T01231036  RH  033%=      5-min Rain = 0
KCR2 191811Z 00014KT 12/M04 A3037 RMK A01 T01201038  RH  033%=      5-min Rain = 0
KCR2 191812Z 00013KT 12/M04 A3037 RMK A01 T01191037  RH  034%=      5-min Rain = 0
KCR2 191813Z 00015KT 12/M04 A3036 RMK A01 T01191036  RH  034%=      5-min Rain = 0
KCR2 191814Z 36014KT 12/M04 A3036 RMK A01 T01191037  RH  033%=      5-min Rain = 0
KCR2 191815Z 35013KT 12/M04 A3036 RMK A01 T01181036  RH  034%=      5-min Rain = 0
KCR2 191816Z 02014KT 12/M03 A3036 RMK A01 T01201034  RH  034%=      5-min Rain = 0
KCR2 191817Z 03013KT 12/M04 A3036 RMK A01 T01201037  RH  033%=      5-min Rain = 0
KCR2 191818Z 03015KT 12/M04 A3036 RMK A01 T01181037  RH  034%=      5-min Rain = 0
KCR2 191819Z 03016KT 12/M04 A3036 RMK A01 T01171038  RH  033%=      5-min Rain = 0
KCR2 191820Z 03014KT 12/M04 A3036 RMK A01 T01161038  RH  034%=      5-min Rain = 0
KCR2 191821Z 03011G17KT 12/M04 A3036 RMK A01 T01161036  RH  034%=      5-min Rain = 0
KCR2 191822Z 03013KT 12/M03 A3036 RMK A01 T01171033  RH  035%=      5-min Rain = 0
KCR2 191823Z 03012KT 12/M03 A3036 RMK A01 T01191034  RH  034%=      5-min Rain = 0
KCR2 191824Z 01012KT 12/M03 A3036 RMK A01 T01211031  RH  035%=      5-min Rain = 0
KCR2 191825Z 36011G16KT 12/M04 A3036 RMK A01 T01221035  RH  033%=      5-min Rain = 0
KCR2 191826Z 36017KT 12/M04 A3036 RMK A01 T01221035  RH  033%=      5-min Rain = 0
KCR2 191827Z 01014KT 12/M04 A3036 RMK A01 T01211037  RH  033%=      5-min Rain = 0
KCR2 191828Z 01015KT 12/M04 A3036 RMK A01 T01201038  RH  033%=      5-min Rain = 0
KCR2 191829Z 02014KT 12/M04 A3036 RMK A01 T01191037  RH  033%=      5-min Rain = 0
KCR2 191830Z 02013KT 12/M04 A3036 RMK A01 T01191036  RH  034%=      5-min Rain = 0
KCR2 191831Z 01012KT 12/M03 A3036 RMK A01 T01211033  RH  034%=      5-min Rain = 0
KCR2 191832Z 01014KT 12/M04 A3036 RMK A01 T01191038  RH  033%=      5-min Rain = 0
KCR2 191833Z 35014KT 12/M04 A3036 RMK A01 T01201035  RH  034%=      5-min Rain = 0
KCR2 191834Z 00014KT 12/M04 A3036 RMK A01 T01191038  RH  033%=      5-min Rain = 0
KCR2 191835Z 00010KT 12/M04 A3036 RMK A01 T01181037  RH  034%=      5-min Rain = 0
KCR2 191836Z 00009KT 12/M03 A3036 RMK A01 T01191034  RH  034%=      5-min Rain = 0
KCR2 191837Z 03012KT 12/M04 A3035 RMK A01 T01201035  RH  034%=      5-min Rain = 0
KCR2 191838Z 02010KT 12/M04 A3035 RMK A01 T01201035  RH  034%=      5-min Rain = 0
KCR2 191839Z 36012KT 12/M04 A3036 RMK A01 T01201035  RH  034%=      5-min Rain = 0
KCR2 191840Z 35010KT 12/M04 A3035 RMK A01 T01211035  RH  033%=      5-min Rain = 0
KCR2 191841Z 00014KT 13/M03 A3035 RMK A01 T01251031  RH  034%=      5-min Rain = 0
KCR2 191842Z 36010KT 13/M04 A3036 RMK A01 T01261036  RH  032%=      5-min Rain = 0
KCR2 191843Z 36012KT 12/M04 A3035 RMK A01 T01221037  RH  033%=      5-min Rain = 0
KCR2 191844Z 35012KT 12/M03 A3035 RMK A01 T01221034  RH  034%=      5-min Rain = 0
KCR2 191845Z 00013G18KT 12/M03 A3035 RMK A01 T01241031  RH  034%=      5-min Rain = 0
KCR2 191846Z 36014KT 13/M03 A3035 RMK A01 T01251033  RH  033%=      5-min Rain = 0
KCR2 191847Z 00011KT 13/M03 A3035 RMK A01 T01251033  RH  033%=      5-min Rain = 0
KCR2 191848Z 01014KT 13/M04 A3035 RMK A01 T01251035  RH  033%=      5-min Rain = 0
KCR2 191849Z 01010KT 12/M03 A3035 RMK A01 T01231034  RH  033%=      5-min Rain = 0
KCR2 191850Z 00011KT 12/M03 A3035 RMK A01 T01231032  RH  034%=      5-min Rain = 0
KCR2 191851Z 36010KT 13/M03 A3035 RMK A01 T01251031  RH  033%=      5-min Rain = 0
KCR2 191852Z 01012KT 13/M03 A3035 RMK A01 T01261033  RH  033%=      5-min Rain = 0
KCR2 191853Z 00015KT 13/M03 A3035 RMK A01 T01271033  RH  033%=      5-min Rain = 0
KCR2 191854Z 36013KT 13/M04 A3035 RMK A01 T01261035  RH  032%=      5-min Rain = 0
KCR2 191855Z 35012KT 13/M03 A3035 RMK A01 T01251034  RH  033%=      5-min Rain = 0
KCR2 191856Z 35015KT 13/M03 A3035 RMK A01 T01251033  RH  033%=      5-min Rain = 0
KCR2 191857Z 35013KT 13/M03 A3035 RMK A01 T01261034  RH  033%=      5-min Rain = 0
KCR2 191858Z 34012KT 13/M04 A3035 RMK A01 T01251035  RH  033%=      5-min Rain = 0
KCR2 191859Z 35013KT 13/M03 A3034 RMK A01 T01251033  RH  033%=      5-min Rain = 0
KCR2 191900Z 00014KT 13/M03 A3034 RMK A01 T01261034  RH  032%=      5-min Rain = 0
KCR2 191901Z 35010KT 13/M03 A3034 RMK A01 T01251033  RH  033%=      5-min Rain = 0
KCR2 191902Z 35011KT 13/M03 A3034 RMK A01 T01271031  RH  033%=      5-min Rain = 0
KCR2 191903Z 36014KT 13/M03 A3034 RMK A01 T01291032  RH  032%=      5-min Rain = 0
KCR2 191904Z 01012KT 13/M04 A3034 RMK A01 T01281035  RH  032%=      5-min Rain = 0
KCR2 191905Z 01011KT 13/M03 A3034 RMK A01 T01271033  RH  033%=      5-min Rain = 0
KCR2 191906Z 00012KT 13/M04 A3034 RMK A01 T01251036  RH  032%=      5-min Rain = 0
KCR2 191907Z 35014KT 13/M03 A3034 RMK A01 T01251033  RH  033%=      5-min Rain = 0
KCR2 191908Z 34012KT 13/M03 A3034 RMK A01 T01261034  RH  033%=      5-min Rain = 0
KCR2 191909Z 33009KT 13/M03 A3034 RMK A01 T01261033  RH  033%=      5-min Rain = 0
KCR2 191910Z 36009KT 13/M03 A3034 RMK A01 T01271029  RH  034%=      5-min Rain = 0
KCR2 191911Z 35011KT 13/M03 A3034 RMK A01 T01321028  RH  033%=      5-min Rain = 0
KCR2 191912Z 36009KT 13/M04 A3034 RMK A01 T01301035  RH  031%=      5-min Rain = 0
KCR2 191913Z 35010KT 13/M03 A3034 RMK A01 T01281032  RH  033%=      5-min Rain = 0
KCR2 191914Z 35009KT 13/M03 A3034 RMK A01 T01281034  RH  032%=      5-min Rain = 0
KCR2 191915Z 36010KT 13/M03 A3033 RMK A01 T01271034  RH  032%=      5-min Rain = 0
KCR2 191916Z 36009G14KT 13/M03 A3033 RMK A01 T01271032  RH  033%=      5-min Rain = 0
KCR2 191917Z 33013KT 13/M03 A3033 RMK A01 T01301030  RH  033%=      5-min Rain = 0
KCR2 191918Z 34011KT 13/M03 A3033 RMK A01 T01301031  RH  032%=      5-min Rain = 0
KCR2 191919Z 01011KT 13/M03 A3033 RMK A01 T01321031  RH  032%=      5-min Rain = 0
KCR2 191920Z 01007KT 13/M03 A3033 RMK A01 T01321032  RH  032%=      5-min Rain = 0
KCR2 191921Z 36009KT 13/M03 A3033 RMK A01 T01321029  RH  032%=      5-min Rain = 0
KCR2 191922Z 01010KT 13/M03 A3033 RMK A01 T01311034  RH  031%=      5-min Rain = 0
KCR2 191923Z 02013G20KT 13/M03 A3033 RMK A01 T01311032  RH  032%=      5-min Rain = 0
KCR2 191924Z 34014G20KT 13/M03 A3033 RMK A01 T01321033  RH  032%=      5-min Rain = 0
KCR2 191925Z 35013KT 13/M03 A3033 RMK A01 T01311034  RH  032%=      5-min Rain = 0
KCR2 191926Z 00013KT 13/M03 A3033 RMK A01 T01301034  RH  032%=      5-min Rain = 0
KCR2 191927Z 01010KT 13/M04 A3033 RMK A01 T01301036  RH  031%=      5-min Rain = 0
KCR2 191928Z 00011KT 13/M03 A3032 RMK A01 T01291032  RH  032%=      5-min Rain = 0
KCR2 191929Z 35009KT 13/M03 A3032 RMK A01 T01301032  RH  032%=      5-min Rain = 0
KCR2 191930Z 34007G13KT 13/M03 A3032 RMK A01 T01321032  RH  032%=      5-min Rain = 0
KCR2 191931Z 00012KT 13/M03 A3032 RMK A01 T01331031  RH  032%=      5-min Rain = 0
KCR2 191932Z 01012KT 14/M03 A3032 RMK A01 T01351034  RH  031%=      5-min Rain = 0
KCR2 191933Z 36011KT 13/M03 A3032 RMK A01 T01331034  RH  031%=      5-min Rain = 0
KCR2 191934Z 01012KT 13/M03 A3032 RMK A01 T01331030  RH  032%=      5-min Rain = 0
KCR2 191935Z 01012KT 13/M03 A3032 RMK A01 T01341034  RH  031%=      5-min Rain = 0
KCR2 191936Z 35012G17KT 13/M04 A3032 RMK A01 T01321035  RH  031%=      5-min Rain = 0
KCR2 191937Z 34014KT 13/M03 A3032 RMK A01 T01341032  RH  031%=      5-min Rain = 0
KCR2 191938Z 36014KT 14/M03 A3032 RMK A01 T01351034  RH  031%=      5-min Rain = 0
KCR2 191939Z 00013KT 13/M04 A3032 RMK A01 T01331037  RH  030%=      5-min Rain = 0
KCR2 191940Z 00008KT 13/M04 A3032 RMK A01 T01301037  RH  031%=      5-min Rain = 0
KCR2 191941Z 00008KT 13/M03 A3032 RMK A01 T01311033  RH  032%=      5-min Rain = 0
KCR2 191942Z 01010KT 13/M03 A3032 RMK A01 T01331033  RH  032%=      5-min Rain = 0
KCR2 191943Z 01010KT 13/M03 A3032 RMK A01 T01331034  RH  031%=      5-min Rain = 0
KCR2 191944Z 01010KT 13/M04 A3031 RMK A01 T01321035  RH  031%=      5-min Rain = 0
KCR2 191945Z 34008G13KT 13/M03 A3031 RMK A01 T01321031  RH  032%=      5-min Rain = 0
KCR2 191946Z 34014KT 14/M03 A3031 RMK A01 T01361030  RH  031%=      5-min Rain = 0
KCR2 191947Z 00009KT 14/M03 A3031 RMK A01 T01371031  RH  031%=      5-min Rain = 0
KCR2 191948Z 01010KT 14/M03 A3031 RMK A01 T01391029  RH  031%=      5-min Rain = 0
KCR2 191949Z 00011KT 14/M03 A3031 RMK A01 T01391034  RH  030%=      5-min Rain = 0
KCR2 191950Z 36010KT 14/M03 A3031 RMK A01 T01371033  RH  031%=      5-min Rain = 0
KCR2 191951Z 34013KT 14/M03 A3031 RMK A01 T01381032  RH  031%=      5-min Rain = 0
KCR2 191952Z 36011KT 14/M03 A3031 RMK A01 T01391034  RH  030%=      5-min Rain = 0
KCR2 191953Z 36012KT 14/M03 A3031 RMK A01 T01391034  RH  030%=      5-min Rain = 0
KCR2 191954Z 35013KT 14/M04 A3031 RMK A01 T01391035  RH  030%=      5-min Rain = 0
KCR2 191955Z 35013KT 14/M03 A3031 RMK A01 T01371034  RH  030%=      5-min Rain = 0
KCR2 191956Z 35010KT 14/M04 A3031 RMK A01 T01361036  RH  030%=      5-min Rain = 0
KCR2 191957Z 35011KT 14/M04 A3031 RMK A01 T01351036  RH  030%=      5-min Rain = 0
KCR2 191958Z 35009KT 14/M03 A3031 RMK A01 T01351034  RH  031%=      5-min Rain = 0
KCR2 191959Z 35009KT 14/M03 A3031 RMK A01 T01361031  RH  031%=      5-min Rain = 0
KCR2 192000Z 33011KT 14/M03 A3031 RMK A01 T01381031  RH  031%=      5-min Rain = 0
KCR2 192001Z 33013KT 14/M04 A3031 RMK A01 T01381036  RH  030%=      5-min Rain = 0
KCR2 192002Z 34013KT 14/M04 A3031 RMK A01 T01361037  RH  030%=      5-min Rain = 0
KCR2 192003Z 34011KT 14/M04 A3031 RMK A01 T01361036  RH  030%=      5-min Rain = 0
KCR2 192004Z 33009KT 14/M04 A3031 RMK A01 T01351035  RH  031%=      5-min Rain = 0
KCR2 192005Z 34011KT 14/M03 A3031 RMK A01 T01361032  RH  031%=      5-min Rain = 0
KCR2 192006Z 34009KT 14/M04 A3031 RMK A01 T01361036  RH  030%=      5-min Rain = 0
KCR2 192007Z 34007KT 13/M04 A303 RMK A01 T01341036  RH  030%=      5-min Rain = 0
KCR2 192008Z 34007KT 14/M03 A303 RMK A01 T01351031  RH  032%=      5-min Rain = 0
KCR2 192009Z 33011KT 14/M03 A303 RMK A01 T01381032  RH  031%=      5-min Rain = 0
KCR2 192010Z 36014KT 14/M04 A3031 RMK A01 T01391036  RH  030%=      5-min Rain = 0
KCR2 192011Z 34011KT 14/M04 A303 RMK A01 T01381037  RH  030%=      5-min Rain = 0
KCR2 192012Z 36011KT 14/M04 A303 RMK A01 T01381036  RH  030%=      5-min Rain = 0
KCR2 192013Z 35009KT 14/M04 A303 RMK A01 T01381036  RH  030%=      5-min Rain = 0
KCR2 192014Z 00009KT 14/M04 A303 RMK A01 T01371036  RH  030%=      5-min Rain = 0
KCR2 192015Z 01009KT 14/M03 A303 RMK A01 T01391029  RH  031%=      5-min Rain = 0
KCR2 192016Z 02008KT 14/M03 A303 RMK A01 T01431030  RH  030%=      5-min Rain = 0
KCR2 192017Z 02009KT 14/M03 A303 RMK A01 T01421032  RH  030%=      5-min Rain = 0
KCR2 192018Z 00010KT 14/M03 A303 RMK A01 T01411033  RH  030%=      5-min Rain = 0
KCR2 192019Z 36007KT 14/M03 A303 RMK A01 T01421031  RH  030%=      5-min Rain = 0
KCR2 192020Z 34009KT 14/M03 A303 RMK A01 T01431033  RH  029%=      5-min Rain = 0
KCR2 192021Z 35012KT 14/M03 A303 RMK A01 T01441034  RH  029%=      5-min Rain = 0
KCR2 192022Z 35010KT 14/M04 A3029 RMK A01 T01441035  RH  029%=      5-min Rain = 0
KCR2 192023Z 01010KT 15/M03 A3029 RMK A01 T01451031  RH  029%=      5-min Rain = 0
KCR2 192024Z 36009KT 15/M03 A3029 RMK A01 T01451033  RH  029%=      5-min Rain = 0
KCR2 192025Z 36011KT 14/M03 A3029 RMK A01 T01431034  RH  029%=      5-min Rain = 0
KCR2 192026Z 01010KT 14/M04 A3029 RMK A01 T01421036  RH  029%=      5-min Rain = 0
KCR2 192027Z 01009KT 14/M03 A3029 RMK A01 T01421034  RH  029%=      5-min Rain = 0
KCR2 192028Z 00011KT 14/M03 A3029 RMK A01 T01421034  RH  030%=      5-min Rain = 0
KCR2 192029Z 02007KT 14/M04 A3029 RMK A01 T01411037  RH  029%=      5-min Rain = 0
KCR2 192030Z 35008KT 14/M03 A3029 RMK A01 T01401031  RH  030%=      5-min Rain = 0
KCR2 192031Z 34010KT 14/M04 A3029 RMK A01 T01421035  RH  029%=      5-min Rain = 0
KCR2 192032Z 33010KT 14/M04 A3029 RMK A01 T01431035  RH  029%=      5-min Rain = 0
KCR2 192033Z 34010KT 14/M04 A3029 RMK A01 T01431037  RH  029%=      5-min Rain = 0
KCR2 192034Z 34010KT 14/M04 A3029 RMK A01 T01431035  RH  029%=      5-min Rain = 0
KCR2 192035Z 35008KT 15/M04 A3029 RMK A01 T01451037  RH  028%=      5-min Rain = 0
KCR2 192036Z 33009KT 14/M04 A3029 RMK A01 T01441036  RH  029%=      5-min Rain = 0
KCR2 192037Z 31012KT 15/M04 A3029 RMK A01 T01451037  RH  028%=      5-min Rain = 0
KCR2 192038Z 31012KT 14/M04 A3029 RMK A01 T01441036  RH  029%=      5-min Rain = 0
KCR2 192039Z 31011KT 14/M04 A3029 RMK A01 T01431036  RH  029%=      5-min Rain = 0
KCR2 192040Z 31011KT 15/M04 A3029 RMK A01 T01451035  RH  029%=      5-min Rain = 0
KCR2 192041Z 31010KT 15/M04 A3029 RMK A01 T01461035  RH  029%=      5-min Rain = 0
KCR2 192042Z 32007KT 15/M03 A3029 RMK A01 T01461033  RH  029%=      5-min Rain = 0
KCR2 192043Z 32009KT 15/M03 A3029 RMK A01 T01461033  RH  029%=      5-min Rain = 0
KCR2 192044Z 36009G18KT 15/M03 A3029 RMK A01 T01461034  RH  029%=      5-min Rain = 0
KCR2 192045Z 32008KT 15/M03 A3029 RMK A01 T01461034  RH  029%=      5-min Rain = 0
KCR2 192046Z 33009KT 15/M03 A3029 RMK A01 T01471031  RH  029%=      5-min Rain = 0
KCR2 192047Z 35012KT 15/M03 A3029 RMK A01 T01501032  RH  028%=      5-min Rain = 0
KCR2 192048Z 35012KT 15/M03 A3029 RMK A01 T01521034  RH  028%=      5-min Rain = 0
KCR2 192049Z 35013KT 15/M04 A3029 RMK A01 T01481038  RH  027%=      5-min Rain = 0
KCR2 192050Z 35012KT 15/M04 A3029 RMK A01 T01471037  RH  028%=      5-min Rain = 0
KCR2 192051Z 35011KT 15/M04 A3029 RMK A01 T01471037  RH  028%=      5-min Rain = 0
KCR2 192052Z 34009KT 15/M04 A3029 RMK A01 T01461038  RH  028%=      5-min Rain = 0
KCR2 192053Z 35012KT 15/M04 A3029 RMK A01 T01451037  RH  028%=      5-min Rain = 0
KCR2 192054Z 01011KT 15/M04 A3029 RMK A01 T01451035  RH  029%=      5-min Rain = 0
KCR2 192055Z 36008KT 15/M03 A3029 RMK A01 T01461033  RH  029%=      5-min Rain = 0
KCR2 192056Z 34011KT 15/M04 A3029 RMK A01 T01471035  RH  028%=      5-min Rain = 0
KCR2 192057Z 36010KT 15/M04 A3029 RMK A01 T01471035  RH  028%=      5-min Rain = 0
KCR2 192058Z 00009KT 15/M04 A3029 RMK A01 T01471035  RH  028%=      5-min Rain = 0
KCR2 192059Z 36011KT 15/M04 A3028 RMK A01 T01471035  RH  028%=      5-min Rain = 0
KCR2 192100Z 33011KT 15/M04 A3029 RMK A01 T01461036  RH  028%=      5-min Rain = 0
KCR2 192101Z 33009KT 15/M03 A3028 RMK A01 T01471033  RH  029%=      5-min Rain = 0
KCR2 192102Z 35012KT 15/M03 A3029 RMK A01 T01501032  RH  028%=      5-min Rain = 0
KCR2 192103Z 36010KT 15/M04 A3028 RMK A01 T01491037  RH  027%=      5-min Rain = 0
KCR2 192104Z 35008KT 15/M04 A3028 RMK A01 T01461036  RH  028%=      5-min Rain = 0
KCR2 192105Z 35009KT 15/M04 A3028 RMK A01 T01451036  RH  028%=      5-min Rain = 0
KCR2 192106Z 01010KT 15/M04 A3028 RMK A01 T01461036  RH  028%=      5-min Rain = 0
KCR2 192107Z 00011KT 15/M03 A3028 RMK A01 T01481034  RH  028%=      5-min Rain = 0
KCR2 192108Z 00012KT 15/M04 A3028 RMK A01 T01481035  RH  028%=      5-min Rain = 0
KCR2 192109Z 36013KT 15/M04 A3028 RMK A01 T01491036  RH  028%=      5-min Rain = 0
KCR2 192110Z 34010KT 15/M04 A3028 RMK A01 T01481038  RH  028%=      5-min Rain = 0
KCR2 192111Z 34010KT 15/M04 A3028 RMK A01 T01461039  RH  028%=      5-min Rain = 0
KCR2 192112Z 33009KT 15/M04 A3028 RMK A01 T01461037  RH  028%=      5-min Rain = 0
KCR2 192113Z 34011KT 15/M04 A3028 RMK A01 T01461037  RH  028%=      5-min Rain = 0
KCR2 192114Z 02011KT 15/M04 A3028 RMK A01 T01461039  RH  028%=      5-min Rain = 0
KCR2 192115Z 02009KT 15/M04 A3028 RMK A01 T01461038  RH  028%=      5-min Rain = 0
KCR2 192116Z 35013G18KT 15/M04 A3028 RMK A01 T01461038  RH  028%=      5-min Rain = 0
KCR2 192117Z 35013KT 15/M04 A3028 RMK A01 T01481035  RH  028%=      5-min Rain = 0
KCR2 192118Z 34009KT 15/M03 A3028 RMK A01 T01491034  RH  028%=      5-min Rain = 0
KCR2 192119Z 32008KT 15/M04 A3028 RMK A01 T01501035  RH  028%=      5-min Rain = 0
KCR2 192120Z 33007KT 15/M04 A3028 RMK A01 T01491035  RH  028%=      5-min Rain = 0
KCR2 192121Z 34008KT 15/M04 A3028 RMK A01 T01481036  RH  028%=      5-min Rain = 0
KCR2 192122Z 35010KT 15/M03 A3028 RMK A01 T01481034  RH  028%=      5-min Rain = 0
KCR2 192123Z 34009KT 15/M04 A3028 RMK A01 T01491037  RH  027%=      5-min Rain = 0
KCR2 192124Z 34009KT 15/M04 A3028 RMK A01 T01481040  RH  027%=      5-min Rain = 0
KCR2 192125Z 33007KT 15/M04 A3028 RMK A01 T01461038  RH  028%=      5-min Rain = 0
KCR2 192126Z 34007KT 15/M04 A3028 RMK A01 T01461037  RH  028%=      5-min Rain = 0
KCR2 192127Z 33006KT 15/M04 A3027 RMK A01 T01471037  RH  028%=      5-min Rain = 0
KCR2 192128Z 33006KT 15/M03 A3027 RMK A01 T01481033  RH  028%=      5-min Rain = 0
KCR2 192129Z 33009KT 15/M04 A3027 RMK A01 T01491037  RH  027%=      5-min Rain = 0
KCR2 192130Z 01007G13KT 15/M04 A3027 RMK A01 T01501037  RH  027%=      5-min Rain = 0
KCR2 192131Z 36007G14KT 15/M04 A3027 RMK A01 T01491039  RH  027%=      5-min Rain = 0
KCR2 192132Z 36011KT 15/M04 A3027 RMK A01 T01491038  RH  027%=      5-min Rain = 0
KCR2 192133Z 34008KT 15/M04 A3027 RMK A01 T01501038  RH  027%=      5-min Rain = 0
KCR2 192134Z 31007KT 15/M04 A3027 RMK A01 T01501036  RH  027%=      5-min Rain = 0
KCR2 192135Z 34011KT 15/M04 A3027 RMK A01 T01521036  RH  027%=      5-min Rain = 0
KCR2 192136Z 33013KT 15/M04 A3027 RMK A01 T01521039  RH  027%=      5-min Rain = 0
KCR2 192137Z 33012KT 15/M04 A3027 RMK A01 T01511040  RH  027%=      5-min Rain = 0
KCR2 192138Z 33014G20KT 15/M04 A3028 RMK A01 T01501040  RH  027%=      5-min Rain = 0
KCR2 192139Z 32010KT 15/M04 A3027 RMK A01 T01491041  RH  027%=      5-min Rain = 0
KCR2 192140Z 34009KT 15/M04 A3027 RMK A01 T01481039  RH  027%=      5-min Rain = 0
KCR2 192141Z 31010KT 15/M04 A3027 RMK A01 T01481040  RH  027%=      5-min Rain = 0
KCR2 192142Z 32011KT 15/M03 A3027 RMK A01 T01501034  RH  028%=      5-min Rain = 0
KCR2 192143Z 32010KT 15/M04 A3027 RMK A01 T01511039  RH  027%=      5-min Rain = 0
KCR2 192144Z 34007KT 15/M04 A3027 RMK A01 T01491039  RH  027%=      5-min Rain = 0
KCR2 192145Z 36005KT 15/M04 A3027 RMK A01 T01491040  RH  027%=      5-min Rain = 0
KCR2 192146Z 32006KT 15/M04 A3027 RMK A01 T01491040  RH  027%=      5-min Rain = 0
KCR2 192147Z 32008KT 15/M04 A3027 RMK A01 T01491040  RH  027%=      5-min Rain = 0
KCR2 192148Z 32009KT 15/M04 A3027 RMK A01 T01491041  RH  027%=      5-min Rain = 0
KCR2 192149Z 32009KT 15/M04 A3027 RMK A01 T01491041  RH  027%=      5-min Rain = 0
KCR2 192150Z 34010KT 15/M04 A3027 RMK A01 T01501041  RH  026%=      5-min Rain = 0
KCR2 192151Z 34008KT 15/M04 A3027 RMK A01 T01501042  RH  026%=      5-min Rain = 0
KCR2 192152Z 35007KT 15/M04 A3027 RMK A01 T01491040  RH  027%=      5-min Rain = 0
KCR2 192153Z 35007KT 15/M04 A3027 RMK A01 T01501040  RH  027%=      5-min Rain = 0
KCR2 192154Z 35007KT 15/M04 A3027 RMK A01 T01501041  RH  026%=      5-min Rain = 0
KCR2 192155Z 34010KT 15/M04 A3027 RMK A01 T01501041  RH  026%=      5-min Rain = 0
KCR2 192156Z 35011KT 15/M04 A3027 RMK A01 T01511041  RH  026%=      5-min Rain = 0
KCR2 192157Z 00011KT 15/M04 A3027 RMK A01 T01511040  RH  027%=      5-min Rain = 0
KCR2 192158Z 34008KT 15/M04 A3027 RMK A01 T01511040  RH  027%=      5-min Rain = 0
KCR2 192159Z 32010KT 15/M04 A3027 RMK A01 T01511040  RH  026%=      5-min Rain = 0
KCR2 192200Z 31009KT 15/M04 A3027 RMK A01 T01521039  RH  027%=      5-min Rain = 0
KCR2 192201Z 32009KT 15/M04 A3027 RMK A01 T01511040  RH  027%=      5-min Rain = 0
KCR2 192202Z 33011KT 15/M04 A3027 RMK A01 T01501039  RH  027%=      5-min Rain = 0
KCR2 192203Z 32010KT 15/M04 A3027 RMK A01 T01491041  RH  027%=      5-min Rain = 0
KCR2 192204Z 31009KT 15/M04 A3027 RMK A01 T01481039  RH  027%=      5-min Rain = 0
KCR2 192205Z 30010KT 15/M04 A3027 RMK A01 T01491039  RH  027%=      5-min Rain = 0
KCR2 192206Z 30007KT 15/M04 A3027 RMK A01 T01501036  RH  027%=      5-min Rain = 0
KCR2 192207Z 29007KT 15/M04 A3027 RMK A01 T01501039  RH  027%=      5-min Rain = 0
KCR2 192208Z 30008KT 15/M04 A3027 RMK A01 T01501040  RH  027%=      5-min Rain = 0
KCR2 192209Z 30006KT 15/M04 A3027 RMK A01 T01501039  RH  027%=      5-min Rain = 0
KCR2 192210Z 30007KT 15/M04 A3027 RMK A01 T01501036  RH  028%=      5-min Rain = 0
KCR2 192211Z 30008KT 15/M04 A3027 RMK A01 T01511039  RH  027%=      5-min Rain = 0
KCR2 192212Z 30005KT 15/M04 A3027 RMK A01 T01491041  RH  027%=      5-min Rain = 0
KCR2 192213Z 34004KT 15/M04 A3027 RMK A01 T01481042  RH  027%=      5-min Rain = 0
KCR2 192214Z 34009KT 15/M04 A3027 RMK A01 T01491040  RH  027%=      5-min Rain = 0
KCR2 192215Z 33009KT 15/M04 A3027 RMK A01 T01491044  RH  026%=      5-min Rain = 0
KCR2 192216Z 35010KT 15/M04 A3027 RMK A01 T01501039  RH  027%=      5-min Rain = 0
KCR2 192217Z 34007KT 15/M04 A3027 RMK A01 T01501041  RH  026%=      5-min Rain = 0
KCR2 192218Z 35010KT 15/M04 A3027 RMK A01 T01511043  RH  026%=      5-min Rain = 0
KCR2 192219Z 36011KT 15/M04 A3027 RMK A01 T01511042  RH  026%=      5-min Rain = 0
KCR2 192220Z 35008KT 15/M04 A3027 RMK A01 T01501043  RH  026%=      5-min Rain = 0
KCR2 192221Z 35008KT 15/M04 A3027 RMK A01 T01501043  RH  026%=      5-min Rain = 0
KCR2 192222Z 34009KT 15/M04 A3027 RMK A01 T01511041  RH  026%=      5-min Rain = 0
KCR2 192223Z 33010KT 15/M04 A3027 RMK A01 T01521042  RH  026%=      5-min Rain = 0
KCR2 192224Z 33008KT 15/M04 A3027 RMK A01 T01511043  RH  026%=      5-min Rain = 0
KCR2 192225Z 35007KT 15/M04 A3027 RMK A01 T01491042  RH  026%=      5-min Rain = 0
KCR2 192226Z 35007KT 15/M04 A3027 RMK A01 T01481043  RH  026%=      5-min Rain = 0
KCR2 192227Z 36007KT 15/M04 A3027 RMK A01 T01491042  RH  027%=      5-min Rain = 0
KCR2 192228Z 00007KT 15/M04 A3027 RMK A01 T01491043  RH  026%=      5-min Rain = 0
KCR2 192229Z 35009KT 15/M04 A3027 RMK A01 T01491041  RH  027%=      5-min Rain = 0
KCR2 192230Z 35007KT 15/M04 A3027 RMK A01 T01501042  RH  026%=      5-min Rain = 0
KCR2 192231Z 36006KT 15/M04 A3027 RMK A01 T01501039  RH  027%=      5-min Rain = 0
KCR2 192232Z 35010KT 15/M04 A3027 RMK A01 T01501042  RH  026%=      5-min Rain = 0
KCR2 192233Z 34011KT 15/M04 A3027 RMK A01 T01501040  RH  027%=      5-min Rain = 0
KCR2 192234Z 34010KT 15/M04 A3027 RMK A01 T01511041  RH  026%=      5-min Rain = 0
KCR2 192235Z 35010KT 15/M04 A3027 RMK A01 T01521041  RH  026%=      5-min Rain = 0
KCR2 192236Z 35010KT 15/M04 A3027 RMK A01 T01521043  RH  026%=      5-min Rain = 0
KCR2 192237Z 35012KT 15/M04 A3027 RMK A01 T01521044  RH  026%=      5-min Rain = 0
KCR2 192238Z 35011KT 15/M04 A3027 RMK A01 T01511044  RH  026%=      5-min Rain = 0
KCR2 192239Z 36010KT 15/M04 A3027 RMK A01 T01501044  RH  026%=      5-min Rain = 0
KCR2 192240Z 36009KT 15/M04 A3027 RMK A01 T01501044  RH  026%=      5-min Rain = 0
KCR2 192241Z 01010KT 15/M04 A3027 RMK A01 T01491043  RH  026%=      5-min Rain = 0
KCR2 192242Z 01009KT 15/M04 A3027 RMK A01 T01491042  RH  026%=      5-min Rain = 0
KCR2 192243Z 00009KT 15/M04 A3027 RMK A01 T01501041  RH  027%=      5-min Rain = 0
KCR2 192244Z 35009KT 15/M04 A3027 RMK A01 T01501042  RH  026%=      5-min Rain = 0
KCR2 192245Z 35010KT 15/M04 A3027 RMK A01 T01501042  RH  026%=      5-min Rain = 0
KCR2 192246Z 36009KT 15/M04 A3027 RMK A01 T01501043  RH  026%=      5-min Rain = 0
KCR2 192247Z 35008KT 15/M04 A3027 RMK A01 T01501043  RH  026%=      5-min Rain = 0
KCR2 192248Z 33009KT 15/M04 A3027 RMK A01 T01501043  RH  026%=      5-min Rain = 0
KCR2 192249Z 33008KT 15/M04 A3027 RMK A01 T01511043  RH  026%=      5-min Rain = 0
KCR2 192250Z 32008KT 15/M04 A3027 RMK A01 T01501042  RH  026%=      5-min Rain = 0
KCR2 192251Z 31007KT 15/M04 A3027 RMK A01 T01491044  RH  026%=      5-min Rain = 0
KCR2 192252Z 32007KT 15/M04 A3027 RMK A01 T01491044  RH  026%=      5-min Rain = 0
KCR2 192253Z 33007KT 15/M04 A3027 RMK A01 T01491044  RH  026%=      5-min Rain = 0
KCR2 192254Z 34005KT 15/M04 A3027 RMK A01 T01481043  RH  026%=      5-min Rain = 0
KCR2 192255Z 33007KT 15/M04 A3027 RMK A01 T01491042  RH  027%=      5-min Rain = 0
KCR2 192256Z 31009KT 15/M04 A3027 RMK A01 T01501042  RH  026%=      5-min Rain = 0
KCR2 192257Z 31009KT 15/M04 A3027 RMK A01 T01501042  RH  026%=      5-min Rain = 0
KCR2 192258Z 33009KT 15/M04 A3027 RMK A01 T01491041  RH  027%=      5-min Rain = 0
KCR2 192259Z 35009KT 15/M04 A3027 RMK A01 T01491039  RH  027%=      5-min Rain = 0
KCR2 192300Z 35009KT 15/M04 A3027 RMK A01 T01501044  RH  026%=      5-min Rain = 0
KCR2 192301Z 34010KT 15/M05 A3027 RMK A01 T01491045  RH  026%=      5-min Rain = 0
KCR2 192302Z 33007KT 15/M05 A3027 RMK A01 T01481045  RH  026%=      5-min Rain = 0
KCR2 192303Z 34006KT 15/M05 A3027 RMK A01 T01481046  RH  026%=      5-min Rain = 0
KCR2 192304Z 34006KT 15/M04 A3027 RMK A01 T01471043  RH  027%=      5-min Rain = 0
KCR2 192305Z 35004KT 15/M04 A3027 RMK A01 T01481041  RH  027%=      5-min Rain = 0
KCR2 192306Z 34004KT 15/M04 A3027 RMK A01 T01481038  RH  027%=      5-min Rain = 0
KCR2 192307Z 33004KT 15/M04 A3027 RMK A01 T01481042  RH  027%=      5-min Rain = 0
KCR2 192308Z 34004KT 15/M04 A3027 RMK A01 T01491041  RH  027%=      5-min Rain = 0
KCR2 192309Z 00005KT 15/M04 A3027 RMK A01 T01491040  RH  027%=      5-min Rain = 0
KCR2 192310Z 34007KT 15/M04 A3027 RMK A01 T01481040  RH  027%=      5-min Rain = 0
KCR2 192311Z 33007KT 15/M04 A3027 RMK A01 T01491039  RH  027%=      5-min Rain = 0
KCR2 192312Z 33007KT 15/M04 A3027 RMK A01 T01491041  RH  027%=      5-min Rain = 0
KCR2 192313Z 31008KT 15/M04 A3027 RMK A01 T01481043  RH  026%=      5-min Rain = 0
KCR2 192314Z 31009KT 15/M04 A3027 RMK A01 T01481042  RH  027%=      5-min Rain = 0
KCR2 192315Z 30007KT 15/M04 A3027 RMK A01 T01471041  RH  027%=      5-min Rain = 0
KCR2 192316Z 30008KT 15/M04 A3027 RMK A01 T01471040  RH  027%=      5-min Rain = 0
KCR2 192317Z 30008KT 15/M04 A3027 RMK A01 T01471041  RH  027%=      5-min Rain = 0
KCR2 192318Z 30007KT 15/M04 A3027 RMK A01 T01461041  RH  027%=      5-min Rain = 0
KCR2 192319Z 32007KT 15/M04 A3027 RMK A01 T01461040  RH  027%=      5-min Rain = 0
KCR2 192320Z 32007KT 15/M04 A3027 RMK A01 T01461043  RH  027%=      5-min Rain = 0
KCR2 192321Z 31007KT 15/M04 A3027 RMK A01 T01461043  RH  027%=      5-min Rain = 0
KCR2 192322Z 31008KT 15/M04 A3027 RMK A01 T01461043  RH  027%=      5-min Rain = 0
KCR2 192323Z 31007KT 15/M04 A3027 RMK A01 T01461044  RH  027%=      5-min Rain = 0
KCR2 192324Z 33007KT 15/M05 A3027 RMK A01 T01451045  RH  027%=      5-min Rain = 0
KCR2 192325Z 34007KT 15/M05 A3027 RMK A01 T01451045  RH  026%=      5-min Rain = 0
KCR2 192326Z 32006KT 15/M05 A3027 RMK A01 T01451046  RH  026%=      5-min Rain = 0
KCR2 192327Z 32004KT 15/M05 A3027 RMK A01 T01451045  RH  027%=      5-min Rain = 0
KCR2 192328Z 31004KT 15/M04 A3027 RMK A01 T01451043  RH  027%=      5-min Rain = 0
KCR2 192329Z 30005KT 15/M04 A3027 RMK A01 T01451042  RH  027%=      5-min Rain = 0
KCR2 192330Z 30006KT 15/M04 A3027 RMK A01 T01451043  RH  027%=      5-min Rain = 0
KCR2 192331Z 29006KT 14/M04 A3027 RMK A01 T01441043  RH  027%=      5-min Rain = 0
KCR2 192332Z 29004KT 14/M04 A3027 RMK A01 T01441044  RH  027%=      5-min Rain = 0
KCR2 192333Z 30004KT 14/M05 A3027 RMK A01 T01441045  RH  027%=      5-min Rain = 0
KCR2 192334Z 29005KT 14/M04 A3027 RMK A01 T01441044  RH  027%=      5-min Rain = 0
KCR2 192335Z 30006KT 14/M04 A3027 RMK A01 T01441040  RH  028%=      5-min Rain = 0
KCR2 192336Z 29009KT 14/M04 A3027 RMK A01 T01431043  RH  027%=      5-min Rain = 0
KCR2 192337Z 30010KT 14/M04 A3027 RMK A01 T01431044  RH  027%=      5-min Rain = 0
KCR2 192338Z 31009KT 14/M04 A3027 RMK A01 T01431044  RH  027%=      5-min Rain = 0
KCR2 192339Z 30009KT 14/M05 A3027 RMK A01 T01431045  RH  027%=      5-min Rain = 0
KCR2 192340Z 31006KT 14/M04 A3027 RMK A01 T01421043  RH  027%=      5-min Rain = 0
KCR2 192341Z 31008KT 14/M04 A3027 RMK A01 T01411043  RH  028%=      5-min Rain = 0
KCR2 192342Z 31008KT 14/M04 A3027 RMK A01 T01401043  RH  028%=      5-min Rain = 0
KCR2 192343Z 31010KT 14/M04 A3027 RMK A01 T01401044  RH  028%=      5-min Rain = 0
KCR2 192344Z 31010KT 14/M04 A3027 RMK A01 T01401044  RH  028%=      5-min Rain = 0
KCR2 192345Z 32008KT 14/M05 A3027 RMK A01 T01391045  RH  027%=      5-min Rain = 0
KCR2 192346Z 32007KT 14/M05 A3027 RMK A01 T01401046  RH  027%=      5-min Rain = 0
KCR2 192347Z 31006KT 14/M04 A3027 RMK A01 T01401044  RH  028%=      5-min Rain = 0
KCR2 192348Z 30006KT 14/M04 A3027 RMK A01 T01381043  RH  028%=      5-min Rain = 0
KCR2 192349Z 30006KT 14/M04 A3027 RMK A01 T01371042  RH  029%=      5-min Rain = 0
KCR2 192350Z 30007KT 14/M04 A3027 RMK A01 T01371043  RH  028%=      5-min Rain = 0
KCR2 192351Z 30006KT 14/M04 A3027 RMK A01 T01361043  RH  029%=      5-min Rain = 0
KCR2 192352Z 31006KT 14/M04 A3027 RMK A01 T01351042  RH  029%=      5-min Rain = 0
KCR2 192353Z 31005KT 13/M04 A3027 RMK A01 T01341043  RH  029%=      5-min Rain = 0
KCR2 192354Z 31005KT 13/M04 A3027 RMK A01 T01341043  RH  029%=      5-min Rain = 0
KCR2 192355Z 31007KT 13/M04 A3027 RMK A01 T01341043  RH  029%=      5-min Rain = 0
KCR2 192356Z 31006KT 13/M04 A3027 RMK A01 T01331043  RH  029%=      5-min Rain = 0
KCR2 192357Z 31006KT 13/M04 A3027 RMK A01 T01321043  RH  029%=      5-min Rain = 0
KCR2 192358Z 31006KT 13/M04 A3027 RMK A01 T01311043  RH  030%=      5-min Rain = 0
KCR2 192359Z 31007KT 13/M04 A3027 RMK A01 T01301042  RH  030%=      5-min Rain = 0
KCR2 200000Z 31007KT 13/M04 A3027 RMK A01 T01301043  RH  030%=      5-min Rain = 0
KCR2 200001Z 31006KT 13/M04 A3027 RMK A01 T01291042  RH  030%=      5-min Rain = 0
KCR2 200002Z 31006KT 13/M04 A3027 RMK A01 T01281042  RH  030%=      5-min Rain = 0
KCR2 200003Z 30006KT 13/M04 A3027 RMK A01 T01281042  RH  030%=      5-min Rain = 0
KCR2 200004Z 30006KT 13/M04 A3027 RMK A01 T01271042  RH  031%=      5-min Rain = 0
KCR2 200005Z 30006KT 13/M04 A3027 RMK A01 T01261042  RH  031%=      5-min Rain = 0
KCR2 200006Z 30006KT 13/M04 A3027 RMK A01 T01251042  RH  031%=      5-min Rain = 0
KCR2 200007Z 30006KT 13/M04 A3027 RMK A01 T01251042  RH  031%=      5-min Rain = 0
KCR2 200008Z 30005KT 12/M04 A3027 RMK A01 T01241042  RH  031%=      5-min Rain = 0
KCR2 200009Z 29005KT 12/M04 A3027 RMK A01 T01231042  RH  031%=      5-min Rain = 0
KCR2 200010Z 29005KT 12/M04 A3027 RMK A01 T01231042  RH  031%=      5-min Rain = 0
KCR2 200011Z 29005KT 12/M04 A3027 RMK A01 T01221041  RH  032%=      5-min Rain = 0
KCR2 200012Z 29005KT 12/M04 A3027 RMK A01 T01221041  RH  032%=      5-min Rain = 0
KCR2 200013Z 29005KT 12/M04 A3027 RMK A01 T01211041  RH  032%=      5-min Rain = 0
KCR2 200014Z 28005KT 12/M04 A3027 RMK A01 T01211042  RH  032%=      5-min Rain = 0
KCR2 200015Z 29005KT 12/M04 A3027 RMK A01 T01211042  RH  032%=      5-min Rain = 0
KCR2 200016Z 28005KT 12/M04 A3027 RMK A01 T01211042  RH  032%=      5-min Rain = 0
KCR2 200017Z 29005KT 12/M04 A3027 RMK A01 T01211043  RH  032%=      5-min Rain = 0
KCR2 200018Z 29005KT 12/M04 A3027 RMK A01 T01211043  RH  032%=      5-min Rain = 0
KCR2 200019Z 28005KT 12/M04 A3027 RMK A01 T01201043  RH  032%=      5-min Rain = 0
KCR2 200020Z 29006KT 12/M04 A3027 RMK A01 T01201044  RH  032%=      5-min Rain = 0
KCR2 200021Z 29006KT 12/M04 A3027 RMK A01 T01191043  RH  032%=      5-min Rain = 0
KCR2 200022Z 29006KT 12/M04 A3027 RMK A01 T01191043  RH  032%=      5-min Rain = 0
KCR2 200023Z 29006KT 12/M04 A3027 RMK A01 T01181044  RH  032%=      5-min Rain = 0
KCR2 200024Z 29006KT 12/M04 A3027 RMK A01 T01181044  RH  032%=      5-min Rain = 0
KCR2 200025Z 30005KT 12/M04 A3027 RMK A01 T01171044  RH  032%=      5-min Rain = 0
KCR2 200026Z 30005KT 12/M04 A3027 RMK A01 T01171044  RH  032%=      5-min Rain = 0
KCR2 200027Z 30005KT 12/M04 A3027 RMK A01 T01161044  RH  032%=      5-min Rain = 0
KCR2 200028Z 30005KT 12/M04 A3027 RMK A01 T01151044  RH  033%=      5-min Rain = 0
KCR2 200029Z 30005KT 12/M04 A3027 RMK A01 T01151044  RH  033%=      5-min Rain = 0
KCR2 200030Z 29005KT 11/M04 A3027 RMK A01 T01141043  RH  033%=      5-min Rain = 0
KCR2 200031Z 29005KT 11/M04 A3027 RMK A01 T01141044  RH  033%=      5-min Rain = 0
KCR2 200032Z 28004KT 11/M05 A3027 RMK A01 T01141045  RH  032%=      5-min Rain = 0
KCR2 200033Z 27004KT 11/M05 A3027 RMK A01 T01131047  RH  032%=      5-min Rain = 0
KCR2 200034Z 26004KT 11/M05 A3027 RMK A01 T01121047  RH  032%=      5-min Rain = 0
KCR2 200035Z 27004KT 11/M05 A3027 RMK A01 T01111047  RH  033%=      5-min Rain = 0
KCR2 200036Z 27004KT 11/M05 A3027 RMK A01 T01101045  RH  033%=      5-min Rain = 0
KCR2 200037Z 27004KT 11/M04 A3027 RMK A01 T01081043  RH  034%=      5-min Rain = 0
KCR2 200038Z 27004KT 11/M04 A3027 RMK A01 T01081041  RH  035%=      5-min Rain = 0
KCR2 200039Z 27004KT 11/M04 A3027 RMK A01 T01081040  RH  035%=      5-min Rain = 0
KCR2 200040Z 27004KT 11/M04 A3027 RMK A01 T01091039  RH  035%=      5-min Rain = 0
KCR2 200041Z 27004KT 11/M04 A3027 RMK A01 T01101039  RH  035%=      5-min Rain = 0
KCR2 200042Z 27004KT 11/M04 A3027 RMK A01 T01101039  RH  035%=      5-min Rain = 0
KCR2 200043Z 28004KT 11/M04 A3027 RMK A01 T01101040  RH  035%=      5-min Rain = 0
KCR2 200044Z 28004KT 11/M04 A3027 RMK A01 T01101039  RH  035%=      5-min Rain = 0
KCR2 200045Z 27004KT 11/M04 A3027 RMK A01 T01101038  RH  035%=      5-min Rain = 0
KCR2 200046Z 27004KT 11/M04 A3027 RMK A01 T01101038  RH  035%=      5-min Rain = 0
KCR2 200047Z 27004KT 11/M04 A3027 RMK A01 T01101040  RH  035%=      5-min Rain = 0
KCR2 200048Z 27004KT 11/M04 A3027 RMK A01 T01101040  RH  035%=      5-min Rain = 0
KCR2 200049Z 27004KT 11/M04 A3027 RMK A01 T01101041  RH  034%=      5-min Rain = 0
KCR2 200050Z 27003KT 11/M04 A3027 RMK A01 T01111042  RH  034%=      5-min Rain = 0
KCR2 200051Z 27003KT 11/M04 A3027 RMK A01 T01111042  RH  034%=      5-min Rain = 0
KCR2 200052Z 27003KT 11/M04 A3027 RMK A01 T01121041  RH  034%=      5-min Rain = 0
KCR2 200053Z 26004KT 11/M03 A3027 RMK A01 T01121029  RH  037%=      5-min Rain = 0
KCR2 200054Z 25005KT 11/M02 A3027 RMK A01 T01101018  RH  041%=      5-min Rain = 0
KCR2 200055Z 26004KT 11/M02 A3027 RMK A01 T01071023  RH  040%=      5-min Rain = 0
KCR2 200056Z 26004KT 11/M03 A3027 RMK A01 T01071029  RH  039%=      5-min Rain = 0
KCR2 200057Z 27003KT 11/M03 A3027 RMK A01 T01061030  RH  038%=      5-min Rain = 0
KCR2 200058Z 27003KT 11/M03 A3027 RMK A01 T01061032  RH  038%=      5-min Rain = 0
KCR2 200059Z 27003KT 11/M03 A3027 RMK A01 T01071034  RH  037%=      5-min Rain = 0
KCR2 200100Z 27003KT 11/M03 A3027 RMK A01 T01071033  RH  037%=      5-min Rain = 0
KCR2 200101Z 26004KT 11/M03 A3027 RMK A01 T01061034  RH  037%=      5-min Rain = 0
KCR2 200102Z 25005KT 10/M03 A3027 RMK A01 T01031034  RH  038%=      5-min Rain = 0
KCR2 200103Z 26004KT 10/M03 A3027 RMK A01 T01031030  RH  039%=      5-min Rain = 0
KCR2 200104Z 26004KT 10/M03 A3027 RMK A01 T01031032  RH  039%=      5-min Rain = 0
KCR2 200105Z 26004KT 10/M03 A3027 RMK A01 T01031030  RH  039%=      5-min Rain = 0
KCR2 200106Z 25004KT 10/M03 A3027 RMK A01 T01031025  RH  041%=      5-min Rain = 0
KCR2 200107Z 25004KT 10/M03 A3027 RMK A01 T01021026  RH  041%=      5-min Rain = 0
KCR2 200108Z 26004KT 10/M03 A3027 RMK A01 T01021028  RH  040%=      5-min Rain = 0
KCR2 200109Z 26004KT 10/M03 A3027 RMK A01 T01021029  RH  040%=      5-min Rain = 0
KCR2 200110Z 26005KT 10/M04 A3027 RMK A01 T01011036  RH  038%=      5-min Rain = 0
KCR2 200111Z 26005KT 10/M04 A3027 RMK A01 T01011038  RH  037%=      5-min Rain = 0
KCR2 200112Z 26005KT 10/M03 A3027 RMK A01 T01021034  RH  038%=      5-min Rain = 0
KCR2 200113Z 26004KT 10/M03 A3028 RMK A01 T01021032  RH  039%=      5-min Rain = 0
KCR2 200114Z 26005KT 10/M03 A3028 RMK A01 T01021029  RH  040%=      5-min Rain = 0
KCR2 200115Z 26005KT 10/M03 A3028 RMK A01 T01011026  RH  041%=      5-min Rain = 0
KCR2 200116Z 25005KT 10/M03 A3028 RMK A01 T01001025  RH  041%=      5-min Rain = 0
KCR2 200117Z 25005KT 10/M02 A3028 RMK A01 T00991023  RH  042%=      5-min Rain = 0
KCR2 200118Z 23006KT 10/M02 A3028 RMK A01 T00981024  RH  043%=      5-min Rain = 0
KCR2 200119Z 23006KT 09/M03 A3028 RMK A01 T00941031  RH  041%=      5-min Rain = 0
KCR2 200120Z 24006KT 09/M04 A3028 RMK A01 T00911036  RH  040%=      5-min Rain = 0
KCR2 200121Z 24005KT 09/M04 A3028 RMK A01 T00911038  RH  040%=      5-min Rain = 0
KCR2 200122Z 24005KT 09/M04 A3028 RMK A01 T00911039  RH  040%=      5-min Rain = 0
KCR2 200123Z 25005KT 09/M04 A3028 RMK A01 T00921040  RH  039%=      5-min Rain = 0
KCR2 200124Z 25005KT 09/M04 A3028 RMK A01 T00931041  RH  039%=      5-min Rain = 0
KCR2 200125Z 25005KT 09/M04 A3028 RMK A01 T00931042  RH  038%=      5-min Rain = 0
KCR2 200126Z 25005KT 09/M04 A3028 RMK A01 T00941042  RH  038%=      5-min Rain = 0
KCR2 200127Z 25005KT 09/M04 A3028 RMK A01 T00941042  RH  038%=      5-min Rain = 0
KCR2 200128Z 25005KT 09/M04 A3028 RMK A01 T00941041  RH  038%=      5-min Rain = 0
KCR2 200129Z 25005KT 09/M04 A3028 RMK A01 T00941042  RH  038%=      5-min Rain = 0
KCR2 200130Z 25005KT 09/M04 A3028 RMK A01 T00941042  RH  038%=      5-min Rain = 0
KCR2 200131Z 25005KT 09/M04 A3028 RMK A01 T00941043  RH  038%=      5-min Rain = 0
KCR2 200132Z 25005KT 09/M04 A3028 RMK A01 T00941043  RH  038%=      5-min Rain = 0
KCR2 200133Z 25005KT 10/M04 A3028 RMK A01 T00951043  RH  038%=      5-min Rain = 0
KCR2 200134Z 25005KT 10/M04 A3028 RMK A01 T00951043  RH  037%=      5-min Rain = 0
KCR2 200135Z 25005KT 10/M04 A3028 RMK A01 T00961043  RH  037%=      5-min Rain = 0
KCR2 200136Z 25005KT 10/M04 A3028 RMK A01 T00971041  RH  038%=      5-min Rain = 0
KCR2 200137Z 24005KT 10/M04 A3028 RMK A01 T00961040  RH  038%=      5-min Rain = 0
KCR2 200138Z 24005KT 09/M04 A3028 RMK A01 T00941041  RH  038%=      5-min Rain = 0
KCR2 200139Z 24005KT 09/M04 A3028 RMK A01 T00921040  RH  039%=      5-min Rain = 0
KCR2 200140Z 23006KT 09/M04 A3028 RMK A01 T00881040  RH  040%=      5-min Rain = 0
KCR2 200141Z 22006KT 08/M04 A3028 RMK A01 T00831039  RH  042%=      5-min Rain = 0
KCR2 200142Z 22006KT 08/M04 A3028 RMK A01 T00811040  RH  042%=      5-min Rain = 0
KCR2 200143Z 23006KT 08/M04 A3028 RMK A01 T00821041  RH  042%=      5-min Rain = 0
KCR2 200144Z 23005KT 08/M04 A3028 RMK A01 T00841040  RH  041%=      5-min Rain = 0
KCR2 200145Z 22005KT 09/M04 A3028 RMK A01 T00851040  RH  041%=      5-min Rain = 0
KCR2 200146Z 22006KT 09/M04 A3028 RMK A01 T00861041  RH  040%=      5-min Rain = 0
KCR2 200147Z 22006KT 09/M04 A3028 RMK A01 T00871041  RH  040%=      5-min Rain = 0
KCR2 200148Z 22006KT 09/M04 A3028 RMK A01 T00881041  RH  040%=      5-min Rain = 0
KCR2 200149Z 22006KT 09/M04 A3028 RMK A01 T00871041  RH  040%=      5-min Rain = 0
KCR2 200150Z 22006KT 09/M04 A3028 RMK A01 T00851041  RH  041%=      5-min Rain = 0
KCR2 200151Z 22006KT 08/M04 A3028 RMK A01 T00841041  RH  041%=      5-min Rain = 0
KCR2 200152Z 22006KT 08/M04 A3028 RMK A01 T00841040  RH  041%=      5-min Rain = 0
KCR2 200153Z 22006KT 09/M04 A3028 RMK A01 T00861041  RH  040%=      5-min Rain = 0
KCR2 200154Z 23006KT 09/M04 A3028 RMK A01 T00881040  RH  040%=      5-min Rain = 0
KCR2 200155Z 23006KT 09/M04 A3028 RMK A01 T00881040  RH  040%=      5-min Rain = 0
KCR2 200156Z 22006KT 09/M04 A3029 RMK A01 T00871040  RH  041%=      5-min Rain = 0
KCR2 200157Z 22006KT 09/M04 A3029 RMK A01 T00861040  RH  041%=      5-min Rain = 0
KCR2 200158Z 22006KT 09/M04 A3029 RMK A01 T00851040  RH  041%=      5-min Rain = 0
KCR2 200159Z 22006KT 09/M04 A3029 RMK A01 T00851040  RH  041%=      5-min Rain = 0
KCR2 200200Z 22007KT 09/M04 A3029 RMK A01 T00851040  RH  041%=      5-min Rain = 0
KCR2 200201Z 22007KT 08/M04 A3029 RMK A01 T00831040  RH  042%=      5-min Rain = 0
KCR2 200202Z 22007KT 08/M04 A3029 RMK A01 T00821039  RH  042%=      5-min Rain = 0
KCR2 200203Z 22007KT 08/M04 A3028 RMK A01 T00811039  RH  043%=      5-min Rain = 0
KCR2 200204Z 21007KT 08/M04 A3028 RMK A01 T00801038  RH  043%=      5-min Rain = 0
KCR2 200205Z 21007KT 08/M04 A3028 RMK A01 T00791038  RH  043%=      5-min Rain = 0
KCR2 200206Z 21007KT 08/M04 A3028 RMK A01 T00791038  RH  044%=      5-min Rain = 0
KCR2 200207Z 21007KT 08/M04 A3028 RMK A01 T00791037  RH  044%=      5-min Rain = 0
KCR2 200208Z 22007KT 08/M04 A3028 RMK A01 T00791037  RH  044%=      5-min Rain = 0
KCR2 200209Z 22006KT 08/M04 A3028 RMK A01 T00781037  RH  044%=      5-min Rain = 0
KCR2 200210Z 22006KT 08/M04 A3028 RMK A01 T00781037  RH  044%=      5-min Rain = 0
KCR2 200211Z 23005KT 08/M04 A3028 RMK A01 T00781037  RH  044%=      5-min Rain = 0
KCR2 200212Z 23005KT 08/M04 A3028 RMK A01 T00781037  RH  044%=      5-min Rain = 0
KCR2 200213Z 22005KT 08/M04 A3028 RMK A01 T00781035  RH  044%=      5-min Rain = 0
KCR2 200214Z 22005KT 08/M04 A3028 RMK A01 T00771035  RH  045%=      5-min Rain = 0
KCR2 200215Z 22004KT 08/M04 A3028 RMK A01 T00771035  RH  045%=      5-min Rain = 0
KCR2 200216Z 21004KT 08/M04 A3028 RMK A01 T00781036  RH  045%=      5-min Rain = 0
KCR2 200217Z 22004KT 08/M04 A3028 RMK A01 T00781035  RH  045%=      5-min Rain = 0
KCR2 200218Z 22004KT 08/M04 A3028 RMK A01 T00771035  RH  045%=      5-min Rain = 0
KCR2 200219Z 22004KT 08/M04 A3028 RMK A01 T00771035  RH  045%=      5-min Rain = 0
KCR2 200220Z 22003KT 08/M04 A3028 RMK A01 T00771035  RH  045%=      5-min Rain = 0
KCR2 200221Z 22003KT 08/M04 A3029 RMK A01 T00781035  RH  045%=      5-min Rain = 0
KCR2 200222Z 23003KT 08/M04 A3029 RMK A01 T00801035  RH  044%=      5-min Rain = 0
KCR2 200223Z 23003KT 08/M04 A3029 RMK A01 T00821036  RH  043%=      5-min Rain = 0
KCR2 200224Z 22003KT 08/M04 A3029 RMK A01 T00831037  RH  043%=      5-min Rain = 0
KCR2 200225Z 22003KT 08/M04 A3028 RMK A01 T00841036  RH  042%=      5-min Rain = 0
KCR2 200226Z 22003KT 08/M04 A3028 RMK A01 T00821035  RH  044%=      5-min Rain = 0
KCR2 200227Z 22002KT 08/M04 A3028 RMK A01 T00791036  RH  044%=      5-min Rain = 0
KCR2 200228Z 22002KT 08/M04 A3028 RMK A01 T00791037  RH  044%=      5-min Rain = 0
KCR2 200229Z 21002KT 08/M04 A3028 RMK A01 T00811037  RH  043%=      5-min Rain = 0
KCR2 200230Z 21002KT 08/M04 A3028 RMK A01 T00821037  RH  043%=      5-min Rain = 0
KCR2 200231Z 21002KT 08/M04 A3028 RMK A01 T00841038  RH  042%=      5-min Rain = 0
KCR2 200232Z 20002KT 09/M04 A3028 RMK A01 T00871038  RH  041%=      5-min Rain = 0
KCR2 200233Z 20002KT 09/M04 A3028 RMK A01 T00891038  RH  041%=      5-min Rain = 0
KCR2 200234Z 19002KT 09/M04 A3028 RMK A01 T00901038  RH  040%=      5-min Rain = 0
KCR2 200235Z 19003KT 09/M04 A3028 RMK A01 T00881039  RH  040%=      5-min Rain = 0
KCR2 200236Z 19003KT 09/M04 A3028 RMK A01 T00881039  RH  041%=      5-min Rain = 0
KCR2 200237Z 18003KT 09/M04 A3028 RMK A01 T00881039  RH  040%=      5-min Rain = 0
KCR2 200238Z 18004KT 09/M04 A3028 RMK A01 T00891039  RH  040%=      5-min Rain = 0
KCR2 200239Z 18005KT 09/M04 A3027 RMK A01 T00891039  RH  040%=      5-min Rain = 0
KCR2 200240Z 18005KT 09/M04 A3028 RMK A01 T00861037  RH  042%=      5-min Rain = 0
KCR2 200241Z 18005KT 08/M04 A3028 RMK A01 T00811037  RH  043%=      5-min Rain = 0
KCR2 200242Z 18005KT 08/M04 A3028 RMK A01 T00781036  RH  044%=      5-min Rain = 0
KCR2 200243Z 17005KT 08/M04 A3028 RMK A01 T00761035  RH  045%=      5-min Rain = 0
KCR2 200244Z 17005KT 08/M04 A3028 RMK A01 T00751035  RH  046%=      5-min Rain = 0
KCR2 200245Z 16005KT 07/M04 A3028 RMK A01 T00731035  RH  046%=      5-min Rain = 0
KCR2 200246Z 16005KT 07/M04 A3028 RMK A01 T00711035  RH  047%=      5-min Rain = 0
KCR2 200247Z 16005KT 07/M03 A3028 RMK A01 T00701034  RH  048%=      5-min Rain = 0
KCR2 200248Z 16005KT 07/M03 A3028 RMK A01 T00711034  RH  047%=      5-min Rain = 0
KCR2 200249Z 16005KT 07/M03 A3028 RMK A01 T00731034  RH  047%=      5-min Rain = 0
KCR2 200250Z 16004KT 07/M03 A3028 RMK A01 T00741033  RH  047%=      5-min Rain = 0
KCR2 200251Z 16004KT 07/M04 A3028 RMK A01 T00711035  RH  047%=      5-min Rain = 0
KCR2 200252Z 16004KT 07/M04 A3028 RMK A01 T00661035  RH  048%=      5-min Rain = 0
KCR2 200253Z 15004KT 06/M04 A3028 RMK A01 T00611035  RH  050%=      5-min Rain = 0
KCR2 200254Z 15004KT 06/M04 A3028 RMK A01 T00581035  RH  051%=      5-min Rain = 0
KCR2 200255Z 15004KT 06/M04 A3028 RMK A01 T00581036  RH  051%=      5-min Rain = 0
KCR2 200256Z 15004KT 06/M04 A3028 RMK A01 T00591038  RH  050%=      5-min Rain = 0
KCR2 200257Z 16003KT 06/M04 A3028 RMK A01 T00601038  RH  049%=      5-min Rain = 0
KCR2 200258Z 16003KT 06/M04 A3028 RMK A01 T00611038  RH  049%=      5-min Rain = 0
KCR2 200259Z 17003KT 06/M04 A3028 RMK A01 T00611039  RH  049%=      5-min Rain = 0
KCR2 200300Z 17003KT 06/M04 A3028 RMK A01 T00611039  RH  049%=      5-min Rain = 0
KCR2 200301Z 17003KT 06/M04 A3028 RMK A01 T00601038  RH  049%=      5-min Rain = 0
KCR2 200302Z 16002KT 06/M04 A3028 RMK A01 T00581039  RH  050%=      5-min Rain = 0
KCR2 200303Z 16002KT 06/M04 A3028 RMK A01 T00571039  RH  050%=      5-min Rain = 0
KCR2 200304Z 16002KT 06/M04 A3028 RMK A01 T00561040  RH  050%=      5-min Rain = 0
KCR2 200305Z 15002KT 06/M04 A3029 RMK A01 T00561040  RH  050%=      5-min Rain = 0
KCR2 200306Z 14002KT 06/M04 A3029 RMK A01 T00551041  RH  050%=      5-min Rain = 0
KCR2 200307Z 12002KT 06/M04 A3029 RMK A01 T00561039  RH  050%=      5-min Rain = 0
KCR2 200308Z 12002KT 06/M04 A3029 RMK A01 T00561039  RH  050%=      5-min Rain = 0
KCR2 200309Z 12002KT 06/M04 A3028 RMK A01 T00571039  RH  050%=      5-min Rain = 0
KCR2 200310Z 11002KT 06/M04 A3028 RMK A01 T00561039  RH  050%=      5-min Rain = 0
KCR2 200311Z 09002KT 05/M04 A3028 RMK A01 T00541038  RH  051%=      5-min Rain = 0
KCR2 200312Z 09003KT 05/M04 A3028 RMK A01 T00511039  RH  052%=      5-min Rain = 0
KCR2 200313Z 10003KT 05/M04 A3028 RMK A01 T00501038  RH  053%=      5-min Rain = 0
KCR2 200314Z 10003KT 05/M04 A3028 RMK A01 T00481037  RH  054%=      5-min Rain = 0
KCR2 200315Z 10003KT 05/M04 A3028 RMK A01 T00471037  RH  055%=      5-min Rain = 0
KCR2 200316Z 10003KT 05/M04 A3028 RMK A01 T00461036  RH  055%=      5-min Rain = 0
KCR2 200317Z 10003KT 05/M04 A3028 RMK A01 T00451036  RH  056%=      5-min Rain = 0
KCR2 200318Z 10003KT 05/M04 A3028 RMK A01 T00451036  RH  056%=      5-min Rain = 0
KCR2 200319Z 10003KT 05/M04 A3028 RMK A01 T00451037  RH  055%=      5-min Rain = 0
KCR2 200320Z 11003KT 04/M04 A3029 RMK A01 T00441038  RH  055%=      5-min Rain = 0
KCR2 200321Z 10003KT 04/M04 A3029 RMK A01 T00441039  RH  055%=      5-min Rain = 0
KCR2 200322Z 09003KT 04/M04 A3029 RMK A01 T00441039  RH  055%=      5-min Rain = 0
KCR2 200323Z 09003KT 04/M04 A3029 RMK A01 T00431040  RH  055%=      5-min Rain = 0
KCR2 200324Z 09003KT 04/M04 A3029 RMK A01 T00431040  RH  055%=      5-min Rain = 0
KCR2 200325Z 09003KT 04/M04 A3029 RMK A01 T00431041  RH  055%=      5-min Rain = 0
KCR2 200326Z 09003KT 04/M04 A3029 RMK A01 T00431041  RH  055%=      5-min Rain = 0
KCR2 200327Z 09003KT 04/M04 A3029 RMK A01 T00421040  RH  055%=      5-min Rain = 0
KCR2 200328Z 09003KT 04/M04 A3029 RMK A01 T00431040  RH  055%=      5-min Rain = 0
KCR2 200329Z 09003KT 04/M04 A3029 RMK A01 T00431039  RH  055%=      5-min Rain = 0
KCR2 200330Z 10003KT 04/M04 A303 RMK A01 T00431039  RH  056%=      5-min Rain = 0
KCR2 200331Z 09003KT 04/M04 A303 RMK A01 T00421038  RH  056%=      5-min Rain = 0
KCR2 200332Z 09003KT 04/M04 A303 RMK A01 T00421038  RH  056%=      5-min Rain = 0
KCR2 200333Z 08003KT 04/M04 A303 RMK A01 T00431038  RH  056%=      5-min Rain = 0
KCR2 200334Z 08003KT 04/M04 A303 RMK A01 T00431038  RH  056%=      5-min Rain = 0
KCR2 200335Z 07004KT 04/M04 A303 RMK A01 T00421037  RH  056%=      5-min Rain = 0
KCR2 200336Z 07004KT 04/M04 A3031 RMK A01 T00411037  RH  057%=      5-min Rain = 0
KCR2 200337Z 07004KT 04/M04 A3031 RMK A01 T00401037  RH  057%=      5-min Rain = 0
KCR2 200338Z 07004KT 04/M04 A3031 RMK A01 T00401037  RH  057%=      5-min Rain = 0
KCR2 200339Z 07004KT 04/M04 A3031 RMK A01 T00401037  RH  057%=      5-min Rain = 0
KCR2 200340Z 07004KT 04/M04 A3031 RMK A01 T00401038  RH  057%=      5-min Rain = 0
KCR2 200341Z 06004KT 04/M04 A3031 RMK A01 T00391038  RH  057%=      5-min Rain = 0
KCR2 200342Z 07005KT 04/M04 A3031 RMK A01 T00381038  RH  057%=      5-min Rain = 0
KCR2 200343Z 06005KT 04/M04 A3031 RMK A01 T00371039  RH  058%=      5-min Rain = 0
KCR2 200344Z 06004KT 04/M04 A3031 RMK A01 T00361040  RH  058%=      5-min Rain = 0
KCR2 200345Z 06004KT 03/M04 A3032 RMK A01 T00341040  RH  058%=      5-min Rain = 0
KCR2 200346Z 06004KT 03/M04 A3032 RMK A01 T00331040  RH  059%=      5-min Rain = 0
KCR2 200347Z 06003KT 03/M04 A3032 RMK A01 T00311039  RH  060%=      5-min Rain = 0
KCR2 200348Z 05003KT 03/M04 A3032 RMK A01 T00311039  RH  060%=      5-min Rain = 0
KCR2 200349Z 05003KT 03/M04 A3032 RMK A01 T00301039  RH  061%=      5-min Rain = 0
KCR2 200350Z 05002KT 03/M04 A3032 RMK A01 T00301038  RH  061%=      5-min Rain = 0
KCR2 200351Z 07002KT 03/M04 A3032 RMK A01 T00301039  RH  061%=      5-min Rain = 0
KCR2 200352Z 07003KT 03/M04 A3032 RMK A01 T00301038  RH  061%=      5-min Rain = 0
KCR2 200353Z 07003KT 03/M04 A3032 RMK A01 T00301038  RH  061%=      5-min Rain = 0
KCR2 200354Z 07004KT 03/M04 A3032 RMK A01 T00301038  RH  061%=      5-min Rain = 0
KCR2 200355Z 07004KT 03/M04 A3032 RMK A01 T00301037  RH  061%=      5-min Rain = 0
KCR2 200356Z 07003KT 03/M04 A3032 RMK A01 T00311037  RH  061%=      5-min Rain = 0
KCR2 200357Z 06003KT 03/M04 A3032 RMK A01 T00311037  RH  061%=      5-min Rain = 0
KCR2 200358Z 07002KT 03/M04 A3032 RMK A01 T00311037  RH  061%=      5-min Rain = 0
KCR2 200359Z 08001KT 03/M04 A3032 RMK A01 T00301037  RH  061%=      5-min Rain = 0
KCR2 200400Z 08001KT 03/M04 A3032 RMK A01 T00291037  RH  062%=      5-min Rain = 0
KCR2 200401Z 07002KT 03/M04 A3032 RMK A01 T00271038  RH  062%=      5-min Rain = 0
KCR2 200402Z 06002KT 03/M04 A3032 RMK A01 T00261038  RH  063%=      5-min Rain = 0
KCR2 200403Z 05001KT 03/M04 A3032 RMK A01 T00261038  RH  063%=      5-min Rain = 0
KCR2 200404Z 05001KT 03/M04 A3032 RMK A01 T00251038  RH  063%=      5-min Rain = 0
KCR2 200405Z 06001KT 03/M04 A3032 RMK A01 T00251038  RH  063%=      5-min Rain = 0
KCR2 200406Z 08002KT 03/M04 A3032 RMK A01 T00251037  RH  064%=      5-min Rain = 0
KCR2 200407Z 09003KT 03/M04 A3031 RMK A01 T00251036  RH  064%=      5-min Rain = 0
KCR2 200408Z 10003KT 03/M04 A3031 RMK A01 T00261036  RH  064%=      5-min Rain = 0
KCR2 200409Z 10003KT 03/M04 A3032 RMK A01 T00271035  RH  064%=      5-min Rain = 0
KCR2 200410Z 10003KT 03/M04 A3032 RMK A01 T00281035  RH  064%=      5-min Rain = 0
KCR2 200411Z 10003KT 03/M04 A3032 RMK A01 T00281035  RH  063%=      5-min Rain = 0
KCR2 200412Z 11004KT 03/M04 A3031 RMK A01 T00291035  RH  063%=      5-min Rain = 0
KCR2 200413Z 12004KT 03/M04 A3031 RMK A01 T00291035  RH  062%=      5-min Rain = 0
KCR2 200414Z 12004KT 03/M04 A3031 RMK A01 T00291036  RH  062%=      5-min Rain = 0
KCR2 200415Z 12004KT 03/M04 A3031 RMK A01 T00281036  RH  063%=      5-min Rain = 0
KCR2 200416Z 12005KT 03/M04 A3031 RMK A01 T00271036  RH  063%=      5-min Rain = 0
KCR2 200417Z 13005KT 03/M04 A303 RMK A01 T00271035  RH  064%=      5-min Rain = 0
KCR2 200418Z 14005KT 03/M03 A303 RMK A01 T00271034  RH  064%=      5-min Rain = 0
KCR2 200419Z 14005KT 03/M03 A303 RMK A01 T00261034  RH  064%=      5-min Rain = 0
KCR2 200420Z 15004KT 03/M04 A303 RMK A01 T00251035  RH  065%=      5-min Rain = 0
KCR2 200421Z 16004KT 02/M04 A3031 RMK A01 T00241035  RH  065%=      5-min Rain = 0
KCR2 200422Z 16004KT 02/M04 A303 RMK A01 T00241035  RH  065%=      5-min Rain = 0
KCR2 200423Z 17004KT 02/M04 A303 RMK A01 T00241035  RH  065%=      5-min Rain = 0
KCR2 200424Z 17004KT 02/M04 A303 RMK A01 T00241035  RH  065%=      5-min Rain = 0
KCR2 200425Z 17004KT 02/M04 A303 RMK A01 T00241035  RH  065%=      5-min Rain = 0
KCR2 200426Z 18003KT 03/M04 A303 RMK A01 T00251035  RH  065%=      5-min Rain = 0
KCR2 200427Z 18003KT 03/M04 A303 RMK A01 T00261035  RH  064%=      5-min Rain = 0
KCR2 200428Z 18004KT 03/M04 A3029 RMK A01 T00261035  RH  064%=      5-min Rain = 0
KCR2 200429Z 17004KT 03/M04 A3029 RMK A01 T00271035  RH  064%=      5-min Rain = 0
KCR2 200430Z 17004KT 03/M04 A3029 RMK A01 T00271035  RH  064%=      5-min Rain = 0
KCR2 200431Z 18004KT 03/M04 A3029 RMK A01 T00281035  RH  063%=      5-min Rain = 0
KCR2 200432Z 18005KT 03/M04 A3029 RMK A01 T00291035  RH  063%=      5-min Rain = 0
KCR2 200433Z 19005KT 03/M04 A3029 RMK A01 T00301035  RH  062%=      5-min Rain = 0
KCR2 200434Z 19006KT 03/M04 A3029 RMK A01 T00311035  RH  062%=      5-min Rain = 0
KCR2 200435Z 19006KT 03/M04 A3029 RMK A01 T00311035  RH  062%=      5-min Rain = 0
KCR2 200436Z 19006KT 03/M03 A3029 RMK A01 T00321034  RH  062%=      5-min Rain = 0
KCR2 200437Z 19006KT 03/M03 A3029 RMK A01 T00321034  RH  062%=      5-min Rain = 0
KCR2 200438Z 19006KT 03/M03 A3029 RMK A01 T00331034  RH  061%=      5-min Rain = 0
KCR2 200439Z 19006KT 03/M03 A3029 RMK A01 T00341034  RH  061%=      5-min Rain = 0
KCR2 200440Z 19006KT 04/M03 A3029 RMK A01 T00351034  RH  061%=      5-min Rain = 0
KCR2 200441Z 19007KT 04/M03 A3029 RMK A01 T00361034  RH  060%=      5-min Rain = 0
KCR2 200442Z 20006KT 04/M03 A3029 RMK A01 T00381034  RH  059%=      5-min Rain = 0
KCR2 200443Z 20005KT 04/M04 A3029 RMK A01 T00371035  RH  059%=      5-min Rain = 0
KCR2 200444Z 20004KT 03/M04 A3029 RMK A01 T00311038  RH  061%=      5-min Rain = 0
KCR2 200445Z 21003KT 03/M04 A3029 RMK A01 T00281037  RH  062%=      5-min Rain = 0
KCR2 200446Z 22002KT 03/M04 A3029 RMK A01 T00281036  RH  063%=      5-min Rain = 0
KCR2 200447Z 24001KT 03/M04 A3029 RMK A01 T00291037  RH  062%=      5-min Rain = 0
KCR2 200448Z 21000KT 03/M04 A3029 RMK A01 T00291037  RH  062%=      5-min Rain = 0
KCR2 200449Z 21000KT 03/M04 A3029 RMK A01 T00321035  RH  061%=      5-min Rain = 0
KCR2 200450Z 12001KT 03/M04 A3029 RMK A01 T00341036  RH  060%=      5-min Rain = 0
KCR2 200451Z 14001KT 03/M04 A3029 RMK A01 T00341036  RH  060%=      5-min Rain = 0
KCR2 200452Z 15002KT 04/M04 A3029 RMK A01 T00371035  RH  059%=      5-min Rain = 0
KCR2 200453Z 16003KT 04/M03 A3029 RMK A01 T00431034  RH  057%=      5-min Rain = 0
KCR2 200454Z 15002KT 05/M03 A3029 RMK A01 T00481034  RH  055%=      5-min Rain = 0
KCR2 200455Z 15002KT 05/M04 A303 RMK A01 T00511035  RH  054%=      5-min Rain = 0
KCR2 200456Z 14001KT 05/M04 A303 RMK A01 T00531035  RH  053%=      5-min Rain = 0
KCR2 200457Z 05002KT 05/M04 A303 RMK A01 T00471037  RH  055%=      5-min Rain = 0
KCR2 200458Z 05005KT 03/M04 A3031 RMK A01 T00341040  RH  058%=      5-min Rain = 0
KCR2 200459Z 06004KT 03/M04 A303 RMK A01 T00251039  RH  063%=      5-min Rain = 0
KCR2 200500Z 07004KT 02/M04 A303 RMK A01 T00201037  RH  066%=      5-min Rain = 0
KCR2 200501Z 07003KT 02/M04 A303 RMK A01 T00181036  RH  067%=      5-min Rain = 0
KCR2 200502Z 07003KT 02/M04 A303 RMK A01 T00161036  RH  068%=      5-min Rain = 0
KCR2 200503Z 06005KT 02/M04 A303 RMK A01 T00161035  RH  069%=      5-min Rain = 0
KCR2 200504Z 06006KT 02/M04 A3031 RMK A01 T00151035  RH  069%=      5-min Rain = 0
KCR2 200505Z 05006KT 02/M04 A3031 RMK A01 T00151035  RH  069%=      5-min Rain = 0
KCR2 200506Z 05006KT 02/M03 A3031 RMK A01 T00151034  RH  070%=      5-min Rain = 0
KCR2 200507Z 05006KT 02/M03 A3031 RMK A01 T00151033  RH  070%=      5-min Rain = 0
KCR2 200508Z 05006KT 02/M03 A3031 RMK A01 T00151033  RH  070%=      5-min Rain = 0
KCR2 200509Z 05006KT 02/M03 A3031 RMK A01 T00151033  RH  070%=      5-min Rain = 0
KCR2 200510Z 05006KT 02/M03 A3031 RMK A01 T00151033  RH  070%=      5-min Rain = 0
KCR2 200511Z 06004KT 02/M03 A3031 RMK A01 T00161033  RH  070%=      5-min Rain = 0
KCR2 200512Z 06006KT 02/M03 A3031 RMK A01 T00151034  RH  070%=      5-min Rain = 0
KCR2 200513Z 06005KT 02/M03 A3031 RMK A01 T00161034  RH  070%=      5-min Rain = 0
KCR2 200514Z 06005KT 02/M03 A3031 RMK A01 T00171034  RH  069%=      5-min Rain = 0
KCR2 200515Z 06005KT 02/M03 A3031 RMK A01 T00171034  RH  069%=      5-min Rain = 0
KCR2 200516Z 07005KT 02/M03 A3031 RMK A01 T00181034  RH  068%=      5-min Rain = 0
KCR2 200517Z 09004KT 02/M03 A3031 RMK A01 T00191034  RH  068%=      5-min Rain = 0
KCR2 200518Z 08005KT 02/M03 A3031 RMK A01 T00181034  RH  068%=      5-min Rain = 0
KCR2 200519Z 07006KT 02/M03 A3031 RMK A01 T00181033  RH  069%=      5-min Rain = 0
KCR2 200520Z 08006KT 02/M03 A3031 RMK A01 T00191033  RH  068%=      5-min Rain = 0
KCR2 200521Z 08006KT 02/M03 A3031 RMK A01 T00191033  RH  068%=      5-min Rain = 0
KCR2 200522Z 09006KT 02/M03 A3031 RMK A01 T00191033  RH  068%=      5-min Rain = 0
KCR2 200523Z 09006KT 02/M03 A303 RMK A01 T00191033  RH  069%=      5-min Rain = 0
KCR2 200524Z 10005KT 02/M03 A303 RMK A01 T00181033  RH  069%=      5-min Rain = 0
KCR2 200525Z 10005KT 02/M03 A303 RMK A01 T00181033  RH  069%=      5-min Rain = 0
KCR2 200526Z 10004KT 02/M03 A303 RMK A01 T00191033  RH  069%=      5-min Rain = 0
KCR2 200527Z 10004KT 02/M03 A303 RMK A01 T00201033  RH  068%=      5-min Rain = 0
KCR2 200528Z 11003KT 02/M03 A303 RMK A01 T00201033  RH  068%=      5-min Rain = 0
KCR2 200529Z 12004KT 02/M03 A303 RMK A01 T00201033  RH  068%=      5-min Rain = 0
KCR2 200530Z 11004KT 02/M03 A303 RMK A01 T00211032  RH  068%=      5-min Rain = 0
KCR2 200531Z 11005KT 02/M03 A3031 RMK A01 T00221032  RH  067%=      5-min Rain = 0
KCR2 200532Z 10005KT 02/M03 A3031 RMK A01 T00231032  RH  067%=      5-min Rain = 0
KCR2 200533Z 11005KT 02/M03 A3031 RMK A01 T00231032  RH  067%=      5-min Rain = 0
KCR2 200534Z 12004KT 02/M03 A3031 RMK A01 T00241032  RH  066%=      5-min Rain = 0
KCR2 200535Z 12002KT 03/M03 A3031 RMK A01 T00251032  RH  066%=      5-min Rain = 0
KCR2 200536Z 12003KT 03/M03 A3031 RMK A01 T00251033  RH  066%=      5-min Rain = 0
KCR2 200537Z 12003KT 02/M03 A3031 RMK A01 T00241033  RH  066%=      5-min Rain = 0
KCR2 200538Z 12004KT 02/M03 A303 RMK A01 T00241033  RH  066%=      5-min Rain = 0
KCR2 200539Z 12004KT 02/M03 A303 RMK A01 T00241033  RH  066%=      5-min Rain = 0
KCR2 200540Z 11004KT 02/M03 A303 RMK A01 T00241033  RH  066%=      5-min Rain = 0
KCR2 200541Z 11004KT 02/M03 A303 RMK A01 T00231033  RH  066%=      5-min Rain = 0
KCR2 200542Z 10004KT 02/M03 A303 RMK A01 T00231033  RH  066%=      5-min Rain = 0
KCR2 200543Z 10003KT 02/M03 A303 RMK A01 T00221034  RH  067%=      5-min Rain = 0
KCR2 200544Z 10003KT 02/M03 A303 RMK A01 T00211034  RH  067%=      5-min Rain = 0
KCR2 200545Z 09003KT 02/M04 A3031 RMK A01 T00201035  RH  067%=      5-min Rain = 0
KCR2 200546Z 09003KT 02/M04 A3031 RMK A01 T00181036  RH  068%=      5-min Rain = 0
KCR2 200547Z 09003KT 02/M04 A3031 RMK A01 T00161035  RH  069%=      5-min Rain = 0
KCR2 200548Z 09003KT 02/M04 A3031 RMK A01 T00161035  RH  069%=      5-min Rain = 0
KCR2 200549Z 09004KT 02/M03 A3031 RMK A01 T00181034  RH  069%=      5-min Rain = 0
KCR2 200550Z 09004KT 02/M03 A3031 RMK A01 T00191034  RH  068%=      5-min Rain = 0
KCR2 200551Z 09004KT 02/M03 A3031 RMK A01 T00201034  RH  068%=      5-min Rain = 0
KCR2 200552Z 09004KT 02/M03 A3031 RMK A01 T00211034  RH  067%=      5-min Rain = 0
KCR2 200553Z 09004KT 02/M04 A3031 RMK A01 T00211035  RH  067%=      5-min Rain = 0
KCR2 200554Z 09005KT 02/M04 A303 RMK A01 T00211035  RH  067%=      5-min Rain = 0
KCR2 200555Z 10005KT 02/M04 A3031 RMK A01 T00201036  RH  067%=      5-min Rain = 0
KCR2 200556Z 10005KT 02/M04 A3031 RMK A01 T00201036  RH  067%=      5-min Rain = 0
KCR2 200557Z 10006KT 02/M04 A3031 RMK A01 T00191036  RH  067%=      5-min Rain = 0
KCR2 200558Z 10005KT 02/M04 A3031 RMK A01 T00181037  RH  067%=      5-min Rain = 0
KCR2 200559Z 10005KT 02/M04 A3031 RMK A01 T00171037  RH  067%=      5-min Rain = 0

Page generated in 0.1413 seconds.